Observation data for McCamey on 01/10/2019      Previous  Date  Next       Current Mesonet Observations  Soil Data  Daily Summary Page  Observations in Plain Language
KMC4 100601Z 25002KT 08/04 A3036 RMK A01 T00800043  RH  077%=      5-min Rain = 0
KMC4 100602Z 28002KT 08/04 A3036 RMK A01 T00800044  RH  078%=      5-min Rain = 0
KMC4 100603Z 29001KT 08/05 A3036 RMK A01 T00810046  RH  079%=      5-min Rain = 0
KMC4 100604Z 31002KT 08/05 A3036 RMK A01 T00800047  RH  080%=      5-min Rain = 0
KMC4 100605Z 32002KT 08/05 A3036 RMK A01 T00800049  RH  081%=      5-min Rain = 0
KMC4 100606Z 31001KT 08/05 A3036 RMK A01 T00800051  RH  082%=      5-min Rain = 0
KMC4 100607Z 32001KT 08/05 A3036 RMK A01 T00800050  RH  081%=      5-min Rain = 0
KMC4 100608Z 33002KT 08/05 A3036 RMK A01 T00790046  RH  079%=      5-min Rain = 0
KMC4 100609Z 32002KT 08/04 A3036 RMK A01 T00790044  RH  078%=      5-min Rain = 0
KMC4 100610Z 32003KT 08/05 A3036 RMK A01 T00790046  RH  080%=      5-min Rain = 0
KMC4 100611Z 31004KT 08/05 A3036 RMK A01 T00790049  RH  082%=      5-min Rain = 0
KMC4 100612Z 32004KT 08/05 A3036 RMK A01 T00790052  RH  083%=      5-min Rain = 0
KMC4 100613Z 32004KT 08/05 A3036 RMK A01 T00780054  RH  084%=      5-min Rain = 0
KMC4 100614Z 33004KT 08/05 A3036 RMK A01 T00780054  RH  085%=      5-min Rain = 0
KMC4 100615Z 33004KT 08/05 A3036 RMK A01 T00780052  RH  084%=      5-min Rain = 0
KMC4 100616Z 34004KT 08/05 A3036 RMK A01 T00780052  RH  084%=      5-min Rain = 0
KMC4 100617Z 34003KT 08/05 A3036 RMK A01 T00770052  RH  084%=      5-min Rain = 0
KMC4 100618Z 34003KT 08/05 A3036 RMK A01 T00770052  RH  084%=      5-min Rain = 0
KMC4 100619Z 34003KT 08/05 A3036 RMK A01 T00770052  RH  084%=      5-min Rain = 0
KMC4 100620Z 34004KT 08/05 A3036 RMK A01 T00770054  RH  085%=      5-min Rain = 0
KMC4 100621Z 34004KT 08/05 A3036 RMK A01 T00770052  RH  084%=      5-min Rain = 0
KMC4 100622Z 34004KT 08/05 A3036 RMK A01 T00770052  RH  084%=      5-min Rain = 0
KMC4 100623Z 34003KT 08/05 A3036 RMK A01 T00770052  RH  084%=      5-min Rain = 0
KMC4 100624Z 34004KT 08/05 A3036 RMK A01 T00770053  RH  085%=      5-min Rain = 0
KMC4 100625Z 34003KT 08/06 A3036 RMK A01 T00770055  RH  086%=      5-min Rain = 0
KMC4 100626Z 33004KT 08/06 A3036 RMK A01 T00780055  RH  086%=      5-min Rain = 0
KMC4 100627Z 33004KT 08/05 A3036 RMK A01 T00770054  RH  086%=      5-min Rain = 0
KMC4 100628Z 34004KT 08/06 A3036 RMK A01 T00770055  RH  086%=      5-min Rain = 0
KMC4 100629Z 34004KT 08/06 A3036 RMK A01 T00770055  RH  086%=      5-min Rain = 0
KMC4 100630Z 35003KT 08/06 A3036 RMK A01 T00770055  RH  086%=      5-min Rain = 0
KMC4 100631Z 35004KT 08/05 A3035 RMK A01 T00770053  RH  085%=      5-min Rain = 0
KMC4 100632Z 35003KT 08/05 A3035 RMK A01 T00770051  RH  083%=      5-min Rain = 0
KMC4 100633Z 00004KT 08/05 A3035 RMK A01 T00780050  RH  083%=      5-min Rain = 0
KMC4 100634Z 01004KT 08/05 A3035 RMK A01 T00780051  RH  083%=      5-min Rain = 0
KMC4 100635Z 02003KT 08/05 A3035 RMK A01 T00780053  RH  084%=      5-min Rain = 0
KMC4 100636Z 04004KT 08/05 A3035 RMK A01 T00780053  RH  084%=      5-min Rain = 0
KMC4 100637Z 05004KT 08/05 A3035 RMK A01 T00780054  RH  085%=      5-min Rain = 0
KMC4 100638Z 05005KT 08/05 A3034 RMK A01 T00780054  RH  085%=      5-min Rain = 0
KMC4 100639Z 06005KT 08/05 A3034 RMK A01 T00780052  RH  084%=      5-min Rain = 0
KMC4 100640Z 07005KT 08/05 A3034 RMK A01 T00780053  RH  084%=      5-min Rain = 0
KMC4 100641Z 07005KT 08/06 A3034 RMK A01 T00780055  RH  085%=      5-min Rain = 0
KMC4 100642Z 07005KT 08/05 A3034 RMK A01 T00770051  RH  084%=      5-min Rain = 0.01
KMC4 100643Z 08004KT 08/05 A3033 RMK A01 T00780052  RH  084%=      5-min Rain = 0
KMC4 100644Z 09005KT 08/05 A3033 RMK A01 T00780052  RH  084%=      5-min Rain = 0
KMC4 100645Z 09006KT 08/05 A3033 RMK A01 T00780050  RH  083%=      5-min Rain = 0
KMC4 100646Z 09008KT 08/05 A3032 RMK A01 T00770050  RH  083%=      5-min Rain = 0.02
KMC4 100647Z 08008KT 08/05 A3031 RMK A01 T00770050  RH  083%=      5-min Rain = 0
KMC4 100648Z 09009KT 08/05 A3031 RMK A01 T00760052  RH  085%=      5-min Rain = 0
KMC4 100649Z 09010KT 08/05 A3031 RMK A01 T00760051  RH  085%=      5-min Rain = 0
KMC4 100650Z 09009KT 08/05 A303 RMK A01 T00760050  RH  084%=      5-min Rain = 0
KMC4 100651Z 09010KT 08/05 A303 RMK A01 T00750050  RH  084%=      5-min Rain = 0.01
KMC4 100652Z 09011KT 08/05 A303 RMK A01 T00750049  RH  084%=      5-min Rain = 0
KMC4 100653Z 09011KT 08/05 A3029 RMK A01 T00760049  RH  083%=      5-min Rain = 0
KMC4 100654Z 09012KT 08/05 A3028 RMK A01 T00750049  RH  084%=      5-min Rain = 0
KMC4 100655Z 09012KT 08/05 A3028 RMK A01 T00750049  RH  084%=      5-min Rain = 0
KMC4 100656Z 10013KT 08/05 A3027 RMK A01 T00750050  RH  084%=      5-min Rain = 0
KMC4 100657Z 10014KT 07/05 A3026 RMK A01 T00740049  RH  084%=      5-min Rain = 0
KMC4 100658Z 10015KT 07/05 A3026 RMK A01 T00740048  RH  083%=      5-min Rain = 0
KMC4 100659Z 10014KT 07/05 A3025 RMK A01 T00740048  RH  083%=      5-min Rain = 0
KMC4 100700Z 10013KT 07/05 A3025 RMK A01 T00740049  RH  084%=      5-min Rain = 0
KMC4 100701Z 11013G18KT 07/05 A3026 RMK A01 T00740048  RH  084%=      5-min Rain = 0
KMC4 100702Z 11011KT 07/05 A3026 RMK A01 T00740048  RH  084%=      5-min Rain = 0
KMC4 100703Z 11011KT 07/05 A3027 RMK A01 T00740048  RH  083%=      5-min Rain = 0
KMC4 100704Z 11010KT 07/05 A3027 RMK A01 T00740048  RH  084%=      5-min Rain = 0
KMC4 100705Z 11009KT 07/05 A3027 RMK A01 T00740049  RH  084%=      5-min Rain = 0
KMC4 100706Z 11010KT 08/05 A3027 RMK A01 T00750049  RH  083%=      5-min Rain = 0
KMC4 100707Z 12009KT 08/05 A3027 RMK A01 T00750047  RH  082%=      5-min Rain = 0
KMC4 100708Z 12008KT 08/05 A3028 RMK A01 T00760047  RH  082%=      5-min Rain = 0
KMC4 100709Z 12009KT 08/05 A3028 RMK A01 T00770047  RH  082%=      5-min Rain = 0
KMC4 100710Z 11008KT 08/04 A3028 RMK A01 T00770044  RH  079%=      5-min Rain = 0
KMC4 100711Z 11006KT 08/04 A3029 RMK A01 T00780043  RH  079%=      5-min Rain = 0
KMC4 100712Z 10005KT 08/04 A3029 RMK A01 T00790044  RH  079%=      5-min Rain = 0
KMC4 100713Z 10005KT 08/04 A3029 RMK A01 T00790042  RH  078%=      5-min Rain = 0
KMC4 100714Z 08003KT 08/04 A3029 RMK A01 T00790043  RH  078%=      5-min Rain = 0
KMC4 100715Z 08002KT 08/04 A3029 RMK A01 T00800042  RH  077%=      5-min Rain = 0
KMC4 100716Z 04003KT 08/04 A3029 RMK A01 T00800042  RH  077%=      5-min Rain = 0
KMC4 100717Z 05003KT 08/04 A3029 RMK A01 T00800044  RH  078%=      5-min Rain = 0
KMC4 100718Z 05002KT 08/04 A3029 RMK A01 T00800043  RH  078%=      5-min Rain = 0
KMC4 100719Z 05003KT 08/04 A303 RMK A01 T00800044  RH  078%=      5-min Rain = 0
KMC4 100720Z 03001KT 08/04 A303 RMK A01 T00800043  RH  078%=      5-min Rain = 0
KMC4 100721Z 03001KT 08/04 A303 RMK A01 T00800044  RH  078%=      5-min Rain = 0
KMC4 100722Z 04000KT 08/04 A303 RMK A01 T00800044  RH  078%=      5-min Rain = 0
KMC4 100723Z 00000KT 08/05 A303 RMK A01 T00800045  RH  078%=      5-min Rain = 0
KMC4 100724Z 32000KT 08/04 A303 RMK A01 T00800043  RH  078%=      5-min Rain = 0
KMC4 100725Z 31002KT 08/04 A3031 RMK A01 T00800044  RH  078%=      5-min Rain = 0
KMC4 100726Z 31002KT 08/04 A3031 RMK A01 T00800044  RH  078%=      5-min Rain = 0
KMC4 100727Z 28002KT 08/04 A3031 RMK A01 T00800041  RH  077%=      5-min Rain = 0
KMC4 100728Z 29002KT 08/04 A3031 RMK A01 T00800043  RH  077%=      5-min Rain = 0
KMC4 100729Z 28002KT 08/04 A3031 RMK A01 T00810044  RH  077%=      5-min Rain = 0
KMC4 100730Z 27001KT 08/05 A3031 RMK A01 T00810046  RH  079%=      5-min Rain = 0
KMC4 100731Z 24000KT 08/05 A3031 RMK A01 T00810045  RH  078%=      5-min Rain = 0
KMC4 100732Z 00000KT 08/05 A3031 RMK A01 T00810048  RH  080%=      5-min Rain = 0
KMC4 100733Z 00000KT 08/05 A3031 RMK A01 T00800049  RH  081%=      5-min Rain = 0
KMC4 100734Z 00000KT 08/05 A3031 RMK A01 T00800051  RH  082%=      5-min Rain = 0
KMC4 100735Z 00000KT 08/05 A3031 RMK A01 T00800051  RH  082%=      5-min Rain = 0
KMC4 100736Z 27001KT 08/05 A3031 RMK A01 T00790052  RH  083%=      5-min Rain = 0
KMC4 100737Z 26002KT 08/05 A3031 RMK A01 T00790053  RH  084%=      5-min Rain = 0
KMC4 100738Z 26002KT 08/05 A3031 RMK A01 T00780052  RH  083%=      5-min Rain = 0
KMC4 100739Z 26003KT 08/05 A3031 RMK A01 T00780053  RH  084%=      5-min Rain = 0
KMC4 100740Z 26003KT 08/06 A3031 RMK A01 T00780055  RH  086%=      5-min Rain = 0
KMC4 100741Z 25003KT 08/06 A3031 RMK A01 T00770056  RH  087%=      5-min Rain = 0
KMC4 100742Z 24003KT 08/06 A3031 RMK A01 T00770057  RH  088%=      5-min Rain = 0
KMC4 100743Z 23003KT 08/06 A3031 RMK A01 T00760058  RH  088%=      5-min Rain = 0
KMC4 100744Z 23003KT 08/06 A3032 RMK A01 T00760058  RH  089%=      5-min Rain = 0
KMC4 100745Z 23003KT 08/06 A3031 RMK A01 T00750059  RH  089%=      5-min Rain = 0
KMC4 100746Z 20002KT 08/06 A3031 RMK A01 T00750059  RH  090%=      5-min Rain = 0
KMC4 100747Z 19000KT 08/06 A3031 RMK A01 T00750059  RH  090%=      5-min Rain = 0
KMC4 100748Z 19001KT 07/06 A3031 RMK A01 T00740059  RH  090%=      5-min Rain = 0
KMC4 100749Z 19001KT 07/06 A3031 RMK A01 T00740059  RH  090%=      5-min Rain = 0.02
KMC4 100750Z 19000KT 07/06 A3031 RMK A01 T00740060  RH  091%=      5-min Rain = 0
KMC4 100751Z 00000KT 07/06 A303 RMK A01 T00740060  RH  091%=      5-min Rain = 0
KMC4 100752Z 00000KT 07/06 A303 RMK A01 T00740060  RH  091%=      5-min Rain = 0
KMC4 100753Z 00000KT 07/06 A3031 RMK A01 T00740060  RH  091%=      5-min Rain = 0
KMC4 100754Z 00000KT 07/06 A3031 RMK A01 T00730059  RH  091%=      5-min Rain = 0
KMC4 100755Z 26000KT 07/06 A3031 RMK A01 T00740059  RH  091%=      5-min Rain = 0
KMC4 100756Z 25002KT 07/06 A3032 RMK A01 T00730059  RH  091%=      5-min Rain = 0
KMC4 100757Z 24003KT 07/06 A3032 RMK A01 T00740060  RH  091%=      5-min Rain = 0
KMC4 100758Z 23003KT 07/06 A3032 RMK A01 T00740058  RH  090%=      5-min Rain = 0
KMC4 100759Z 22002KT 07/06 A3031 RMK A01 T00740057  RH  089%=      5-min Rain = 0
KMC4 100800Z 21002KT 07/06 A3031 RMK A01 T00740058  RH  090%=      5-min Rain = 0
KMC4 100801Z 22002KT 07/06 A3032 RMK A01 T00740059  RH  090%=      5-min Rain = 0
KMC4 100802Z 23002KT 07/06 A3032 RMK A01 T00740059  RH  090%=      5-min Rain = 0
KMC4 100803Z 25003KT 07/06 A3032 RMK A01 T00740060  RH  091%=      5-min Rain = 0
KMC4 100804Z 26003KT 07/06 A3032 RMK A01 T00740060  RH  091%=      5-min Rain = 0
KMC4 100805Z 28003KT 07/06 A3032 RMK A01 T00740061  RH  092%=      5-min Rain = 0
KMC4 100806Z 30002KT 07/06 A3032 RMK A01 T00740061  RH  092%=      5-min Rain = 0
KMC4 100807Z 29002KT 07/06 A3032 RMK A01 T00740061  RH  092%=      5-min Rain = 0
KMC4 100808Z 28002KT 07/06 A3032 RMK A01 T00730061  RH  092%=      5-min Rain = 0
KMC4 100809Z 29002KT 07/06 A3032 RMK A01 T00740061  RH  092%=      5-min Rain = 0
KMC4 100810Z 29002KT 07/06 A3033 RMK A01 T00730060  RH  091%=      5-min Rain = 0
KMC4 100811Z 29002KT 07/06 A3032 RMK A01 T00740060  RH  091%=      5-min Rain = 0
KMC4 100812Z 31002KT 07/06 A3032 RMK A01 T00740060  RH  091%=      5-min Rain = 0
KMC4 100813Z 31002KT 07/06 A3033 RMK A01 T00740061  RH  092%=      5-min Rain = 0
KMC4 100814Z 32002KT 07/06 A3033 RMK A01 T00740062  RH  092%=      5-min Rain = 0
KMC4 100815Z 32002KT 07/06 A3033 RMK A01 T00740062  RH  092%=      5-min Rain = 0
KMC4 100816Z 32002KT 07/06 A3033 RMK A01 T00740063  RH  093%=      5-min Rain = 0
KMC4 100817Z 33003KT 07/06 A3033 RMK A01 T00740063  RH  093%=      5-min Rain = 0
KMC4 100818Z 32003KT 07/06 A3033 RMK A01 T00740063  RH  093%=      5-min Rain = 0
KMC4 100819Z 32003KT 07/06 A3033 RMK A01 T00740064  RH  093%=      5-min Rain = 0
KMC4 100820Z 34003KT 07/06 A3033 RMK A01 T00740064  RH  093%=      5-min Rain = 0
KMC4 100821Z 34002KT 07/06 A3033 RMK A01 T00740063  RH  093%=      5-min Rain = 0
KMC4 100822Z 33002KT 07/06 A3033 RMK A01 T00740062  RH  092%=      5-min Rain = 0
KMC4 100823Z 33002KT 07/06 A3033 RMK A01 T00740061  RH  092%=      5-min Rain = 0
KMC4 100824Z 33003KT 07/06 A3033 RMK A01 T00740061  RH  091%=      5-min Rain = 0
KMC4 100825Z 32002KT 07/06 A3033 RMK A01 T00740060  RH  090%=      5-min Rain = 0
KMC4 100826Z 30003KT 07/06 A3033 RMK A01 T00740058  RH  090%=      5-min Rain = 0
KMC4 100827Z 29003KT 08/06 A3033 RMK A01 T00750057  RH  089%=      5-min Rain = 0
KMC4 100828Z 29003KT 08/06 A3033 RMK A01 T00750057  RH  088%=      5-min Rain = 0
KMC4 100829Z 29004KT 08/06 A3034 RMK A01 T00760058  RH  089%=      5-min Rain = 0
KMC4 100830Z 29004KT 08/06 A3034 RMK A01 T00760059  RH  089%=      5-min Rain = 0
KMC4 100831Z 28005KT 08/06 A3034 RMK A01 T00760060  RH  089%=      5-min Rain = 0
KMC4 100832Z 28004KT 08/06 A3034 RMK A01 T00760057  RH  088%=      5-min Rain = 0
KMC4 100833Z 29004KT 08/06 A3034 RMK A01 T00760057  RH  088%=      5-min Rain = 0
KMC4 100834Z 29005KT 08/06 A3034 RMK A01 T00760057  RH  088%=      5-min Rain = 0
KMC4 100835Z 30004KT 08/06 A3034 RMK A01 T00760057  RH  088%=      5-min Rain = 0
KMC4 100836Z 31004KT 08/06 A3034 RMK A01 T00760058  RH  088%=      5-min Rain = 0
KMC4 100837Z 31004KT 08/06 A3034 RMK A01 T00760059  RH  089%=      5-min Rain = 0
KMC4 100838Z 31004KT 08/06 A3034 RMK A01 T00760059  RH  089%=      5-min Rain = 0
KMC4 100839Z 32004KT 08/06 A3034 RMK A01 T00750058  RH  089%=      5-min Rain = 0
KMC4 100840Z 32004KT 08/06 A3034 RMK A01 T00750059  RH  089%=      5-min Rain = 0
KMC4 100841Z 32004KT 08/06 A3034 RMK A01 T00750059  RH  089%=      5-min Rain = 0
KMC4 100842Z 32004KT 08/06 A3034 RMK A01 T00750058  RH  089%=      5-min Rain = 0
KMC4 100843Z 31004KT 08/06 A3034 RMK A01 T00750057  RH  088%=      5-min Rain = 0
KMC4 100844Z 31004KT 08/06 A3034 RMK A01 T00750057  RH  088%=      5-min Rain = 0
KMC4 100845Z 31004KT 08/06 A3034 RMK A01 T00760058  RH  088%=      5-min Rain = 0
KMC4 100846Z 31003KT 08/06 A3034 RMK A01 T00760057  RH  088%=      5-min Rain = 0
KMC4 100847Z 31003KT 08/06 A3034 RMK A01 T00760057  RH  088%=      5-min Rain = 0
KMC4 100848Z 31003KT 08/06 A3034 RMK A01 T00760056  RH  087%=      5-min Rain = 0
KMC4 100849Z 31003KT 08/06 A3034 RMK A01 T00760056  RH  087%=      5-min Rain = 0
KMC4 100850Z 32003KT 08/06 A3034 RMK A01 T00760056  RH  087%=      5-min Rain = 0
KMC4 100851Z 32002KT 08/06 A3034 RMK A01 T00760056  RH  087%=      5-min Rain = 0
KMC4 100852Z 32002KT 08/06 A3034 RMK A01 T00760055  RH  087%=      5-min Rain = 0
KMC4 100853Z 32002KT 08/06 A3034 RMK A01 T00760056  RH  087%=      5-min Rain = 0
KMC4 100854Z 32002KT 08/06 A3034 RMK A01 T00760056  RH  087%=      5-min Rain = 0
KMC4 100855Z 32002KT 08/06 A3034 RMK A01 T00760056  RH  087%=      5-min Rain = 0
KMC4 100856Z 33002KT 08/06 A3034 RMK A01 T00770057  RH  087%=      5-min Rain = 0
KMC4 100857Z 33003KT 08/06 A3034 RMK A01 T00770057  RH  087%=      5-min Rain = 0
KMC4 100858Z 33003KT 08/06 A3034 RMK A01 T00770058  RH  088%=      5-min Rain = 0
KMC4 100859Z 34002KT 08/06 A3034 RMK A01 T00770058  RH  088%=      5-min Rain = 0
KMC4 100900Z 34002KT 08/06 A3034 RMK A01 T00770058  RH  088%=      5-min Rain = 0
KMC4 100901Z 34002KT 08/06 A3034 RMK A01 T00770056  RH  087%=      5-min Rain = 0
KMC4 100902Z 35002KT 08/06 A3034 RMK A01 T00770055  RH  086%=      5-min Rain = 0
KMC4 100903Z 01002KT 08/06 A3033 RMK A01 T00770055  RH  086%=      5-min Rain = 0
KMC4 100904Z 02002KT 08/06 A3033 RMK A01 T00770056  RH  087%=      5-min Rain = 0
KMC4 100905Z 03002KT 08/06 A3033 RMK A01 T00770058  RH  087%=      5-min Rain = 0
KMC4 100906Z 05002KT 08/06 A3033 RMK A01 T00770058  RH  088%=      5-min Rain = 0
KMC4 100907Z 05003KT 08/06 A3033 RMK A01 T00770058  RH  088%=      5-min Rain = 0
KMC4 100908Z 06003KT 08/06 A3032 RMK A01 T00770057  RH  087%=      5-min Rain = 0
KMC4 100909Z 06003KT 08/06 A3032 RMK A01 T00770056  RH  086%=      5-min Rain = 0
KMC4 100910Z 07003KT 08/06 A3032 RMK A01 T00770057  RH  087%=      5-min Rain = 0
KMC4 100911Z 07003KT 08/06 A3032 RMK A01 T00770057  RH  087%=      5-min Rain = 0
KMC4 100912Z 08003KT 08/06 A3032 RMK A01 T00770055  RH  086%=      5-min Rain = 0
KMC4 100913Z 08003KT 08/06 A3032 RMK A01 T00780057  RH  087%=      5-min Rain = 0
KMC4 100914Z 08004KT 08/06 A3032 RMK A01 T00780058  RH  087%=      5-min Rain = 0
KMC4 100915Z 08003KT 08/06 A3032 RMK A01 T00780058  RH  087%=      5-min Rain = 0
KMC4 100916Z 08003KT 08/06 A3032 RMK A01 T00780057  RH  087%=      5-min Rain = 0
KMC4 100917Z 09003KT 08/06 A3032 RMK A01 T00780056  RH  086%=      5-min Rain = 0
KMC4 100918Z 09003KT 08/06 A3031 RMK A01 T00780057  RH  086%=      5-min Rain = 0
KMC4 100919Z 08004KT 08/06 A3031 RMK A01 T00780056  RH  086%=      5-min Rain = 0
KMC4 100920Z 08004KT 08/06 A3031 RMK A01 T00780056  RH  086%=      5-min Rain = 0
KMC4 100921Z 07003KT 08/06 A3031 RMK A01 T00780058  RH  087%=      5-min Rain = 0
KMC4 100922Z 07003KT 08/06 A3031 RMK A01 T00780059  RH  088%=      5-min Rain = 0
KMC4 100923Z 07003KT 08/06 A3031 RMK A01 T00770058  RH  088%=      5-min Rain = 0
KMC4 100924Z 07003KT 08/06 A3031 RMK A01 T00770058  RH  088%=      5-min Rain = 0
KMC4 100925Z 07004KT 08/06 A3031 RMK A01 T00770059  RH  088%=      5-min Rain = 0
KMC4 100926Z 08004KT 08/06 A3031 RMK A01 T00770059  RH  089%=      5-min Rain = 0
KMC4 100927Z 08003KT 08/06 A303 RMK A01 T00770060  RH  089%=      5-min Rain = 0
KMC4 100928Z 08003KT 08/06 A3031 RMK A01 T00770060  RH  089%=      5-min Rain = 0
KMC4 100929Z 07003KT 08/06 A3031 RMK A01 T00770059  RH  088%=      5-min Rain = 0
KMC4 100930Z 07002KT 08/06 A3031 RMK A01 T00770058  RH  088%=      5-min Rain = 0
KMC4 100931Z 04002KT 08/06 A3031 RMK A01 T00770057  RH  087%=      5-min Rain = 0
KMC4 100932Z 03001KT 08/06 A3031 RMK A01 T00770056  RH  087%=      5-min Rain = 0
KMC4 100933Z 05002KT 08/06 A3031 RMK A01 T00770055  RH  086%=      5-min Rain = 0
KMC4 100934Z 04002KT 08/06 A3031 RMK A01 T00780056  RH  086%=      5-min Rain = 0
KMC4 100935Z 05002KT 08/06 A3031 RMK A01 T00780055  RH  086%=      5-min Rain = 0
KMC4 100936Z 05002KT 08/06 A3031 RMK A01 T00780055  RH  085%=      5-min Rain = 0
KMC4 100937Z 05003KT 08/06 A3031 RMK A01 T00780056  RH  086%=      5-min Rain = 0
KMC4 100938Z 06002KT 08/05 A3031 RMK A01 T00780054  RH  085%=      5-min Rain = 0
KMC4 100939Z 06002KT 08/06 A3031 RMK A01 T00790055  RH  085%=      5-min Rain = 0
KMC4 100940Z 06002KT 08/05 A3031 RMK A01 T00790054  RH  084%=      5-min Rain = 0
KMC4 100941Z 06002KT 08/05 A3031 RMK A01 T00790054  RH  084%=      5-min Rain = 0
KMC4 100942Z 06003KT 08/05 A3031 RMK A01 T00790054  RH  084%=      5-min Rain = 0
KMC4 100943Z 05004KT 08/06 A3031 RMK A01 T00790055  RH  085%=      5-min Rain = 0
KMC4 100944Z 05004KT 08/06 A3031 RMK A01 T00790058  RH  086%=      5-min Rain = 0
KMC4 100945Z 05005KT 08/06 A3031 RMK A01 T00790058  RH  087%=      5-min Rain = 0
KMC4 100946Z 06004KT 08/06 A303 RMK A01 T00790057  RH  086%=      5-min Rain = 0
KMC4 100947Z 06005KT 08/06 A303 RMK A01 T00780056  RH  086%=      5-min Rain = 0
KMC4 100948Z 06005KT 08/06 A303 RMK A01 T00780057  RH  086%=      5-min Rain = 0
KMC4 100949Z 06005KT 08/06 A303 RMK A01 T00780057  RH  087%=      5-min Rain = 0
KMC4 100950Z 06004KT 08/06 A303 RMK A01 T00780057  RH  087%=      5-min Rain = 0
KMC4 100951Z 06004KT 08/06 A303 RMK A01 T00780057  RH  087%=      5-min Rain = 0
KMC4 100952Z 06005KT 08/06 A303 RMK A01 T00770058  RH  088%=      5-min Rain = 0
KMC4 100953Z 06005KT 08/06 A303 RMK A01 T00770059  RH  088%=      5-min Rain = 0
KMC4 100954Z 06005KT 08/06 A303 RMK A01 T00770059  RH  088%=      5-min Rain = 0
KMC4 100955Z 07006KT 08/06 A3029 RMK A01 T00770058  RH  088%=      5-min Rain = 0
KMC4 100956Z 06007KT 08/06 A3029 RMK A01 T00770057  RH  087%=      5-min Rain = 0
KMC4 100957Z 06006KT 08/06 A3029 RMK A01 T00770057  RH  087%=      5-min Rain = 0
KMC4 100958Z 06007KT 08/06 A3028 RMK A01 T00770058  RH  088%=      5-min Rain = 0
KMC4 100959Z 06007KT 08/06 A3028 RMK A01 T00760058  RH  088%=      5-min Rain = 0
KMC4 101000Z 05007KT 08/06 A3028 RMK A01 T00760057  RH  088%=      5-min Rain = 0
KMC4 101001Z 05007KT 08/06 A3028 RMK A01 T00760057  RH  088%=      5-min Rain = 0
KMC4 101002Z 05007KT 08/06 A3028 RMK A01 T00760057  RH  087%=      5-min Rain = 0
KMC4 101003Z 05006KT 08/06 A3028 RMK A01 T00760056  RH  087%=      5-min Rain = 0
KMC4 101004Z 04006KT 08/06 A3029 RMK A01 T00760057  RH  087%=      5-min Rain = 0
KMC4 101005Z 04004KT 08/06 A3029 RMK A01 T00760057  RH  088%=      5-min Rain = 0
KMC4 101006Z 04004KT 08/06 A303 RMK A01 T00770058  RH  088%=      5-min Rain = 0
KMC4 101007Z 03003KT 08/06 A303 RMK A01 T00770058  RH  088%=      5-min Rain = 0
KMC4 101008Z 03003KT 08/06 A303 RMK A01 T00770058  RH  088%=      5-min Rain = 0
KMC4 101009Z 03002KT 08/06 A303 RMK A01 T00770057  RH  087%=      5-min Rain = 0
KMC4 101010Z 03002KT 08/06 A303 RMK A01 T00770058  RH  088%=      5-min Rain = 0
KMC4 101011Z 03001KT 08/06 A303 RMK A01 T00770058  RH  088%=      5-min Rain = 0
KMC4 101012Z 09002KT 08/06 A303 RMK A01 T00770057  RH  087%=      5-min Rain = 0
KMC4 101013Z 09003KT 08/06 A303 RMK A01 T00770056  RH  087%=      5-min Rain = 0
KMC4 101014Z 09004KT 08/06 A3029 RMK A01 T00770055  RH  086%=      5-min Rain = 0
KMC4 101015Z 10003KT 08/06 A3029 RMK A01 T00770055  RH  086%=      5-min Rain = 0
KMC4 101016Z 10002KT 08/06 A303 RMK A01 T00770056  RH  087%=      5-min Rain = 0
KMC4 101017Z 09002KT 08/06 A303 RMK A01 T00770057  RH  087%=      5-min Rain = 0
KMC4 101018Z 06003KT 08/06 A303 RMK A01 T00770057  RH  087%=      5-min Rain = 0
KMC4 101019Z 05003KT 08/06 A303 RMK A01 T00770056  RH  087%=      5-min Rain = 0
KMC4 101020Z 05003KT 08/06 A303 RMK A01 T00770055  RH  086%=      5-min Rain = 0
KMC4 101021Z 03003KT 08/05 A303 RMK A01 T00760054  RH  086%=      5-min Rain = 0
KMC4 101022Z 04003KT 08/06 A303 RMK A01 T00770056  RH  086%=      5-min Rain = 0
KMC4 101023Z 04003KT 08/06 A303 RMK A01 T00770057  RH  087%=      5-min Rain = 0
KMC4 101024Z 04003KT 08/06 A3029 RMK A01 T00770057  RH  087%=      5-min Rain = 0
KMC4 101025Z 05002KT 08/06 A3029 RMK A01 T00770058  RH  087%=      5-min Rain = 0
KMC4 101026Z 05003KT 08/06 A3029 RMK A01 T00770057  RH  087%=      5-min Rain = 0
KMC4 101027Z 05003KT 08/06 A3029 RMK A01 T00770058  RH  087%=      5-min Rain = 0
KMC4 101028Z 06004KT 08/06 A3029 RMK A01 T00770057  RH  087%=      5-min Rain = 0
KMC4 101029Z 06004KT 08/06 A3029 RMK A01 T00770058  RH  088%=      5-min Rain = 0
KMC4 101030Z 06004KT 08/06 A3028 RMK A01 T00770058  RH  088%=      5-min Rain = 0
KMC4 101031Z 06004KT 08/06 A3028 RMK A01 T00760058  RH  088%=      5-min Rain = 0
KMC4 101032Z 06004KT 08/06 A3028 RMK A01 T00760058  RH  088%=      5-min Rain = 0
KMC4 101033Z 07004KT 08/06 A3028 RMK A01 T00760059  RH  089%=      5-min Rain = 0
KMC4 101034Z 07004KT 08/06 A3028 RMK A01 T00760057  RH  088%=      5-min Rain = 0
KMC4 101035Z 07005KT 08/06 A3028 RMK A01 T00760056  RH  088%=      5-min Rain = 0
KMC4 101036Z 07005KT 08/06 A3028 RMK A01 T00760056  RH  087%=      5-min Rain = 0
KMC4 101037Z 07005KT 08/06 A3028 RMK A01 T00760056  RH  087%=      5-min Rain = 0
KMC4 101038Z 07005KT 08/06 A3028 RMK A01 T00760056  RH  087%=      5-min Rain = 0
KMC4 101039Z 06005KT 08/06 A3027 RMK A01 T00760056  RH  087%=      5-min Rain = 0
KMC4 101040Z 06005KT 08/06 A3028 RMK A01 T00760055  RH  087%=      5-min Rain = 0
KMC4 101041Z 06004KT 08/06 A3028 RMK A01 T00760056  RH  087%=      5-min Rain = 0
KMC4 101042Z 06005KT 08/06 A3028 RMK A01 T00760056  RH  087%=      5-min Rain = 0
KMC4 101043Z 06005KT 08/06 A3028 RMK A01 T00760056  RH  087%=      5-min Rain = 0
KMC4 101044Z 07005KT 08/06 A3028 RMK A01 T00760055  RH  087%=      5-min Rain = 0
KMC4 101045Z 08005KT 08/06 A3027 RMK A01 T00760056  RH  087%=      5-min Rain = 0
KMC4 101046Z 08006KT 08/06 A3027 RMK A01 T00760056  RH  087%=      5-min Rain = 0
KMC4 101047Z 07006KT 08/06 A3027 RMK A01 T00760056  RH  087%=      5-min Rain = 0
KMC4 101048Z 07006KT 08/06 A3027 RMK A01 T00760057  RH  088%=      5-min Rain = 0
KMC4 101049Z 07007KT 08/06 A3027 RMK A01 T00760058  RH  088%=      5-min Rain = 0
KMC4 101050Z 07006KT 08/06 A3026 RMK A01 T00760058  RH  089%=      5-min Rain = 0
KMC4 101051Z 07007KT 08/06 A3026 RMK A01 T00750058  RH  089%=      5-min Rain = 0
KMC4 101052Z 07007KT 08/06 A3026 RMK A01 T00750058  RH  089%=      5-min Rain = 0
KMC4 101053Z 07007KT 08/06 A3026 RMK A01 T00750058  RH  089%=      5-min Rain = 0
KMC4 101054Z 07006KT 08/06 A3027 RMK A01 T00750058  RH  089%=      5-min Rain = 0
KMC4 101055Z 07006KT 07/06 A3027 RMK A01 T00740057  RH  089%=      5-min Rain = 0
KMC4 101056Z 07005KT 07/06 A3027 RMK A01 T00740056  RH  088%=      5-min Rain = 0
KMC4 101057Z 06006KT 08/06 A3027 RMK A01 T00750056  RH  088%=      5-min Rain = 0
KMC4 101058Z 07005KT 07/06 A3027 RMK A01 T00740055  RH  088%=      5-min Rain = 0
KMC4 101059Z 06006KT 07/05 A3027 RMK A01 T00740054  RH  087%=      5-min Rain = 0
KMC4 101100Z 07006KT 07/05 A3027 RMK A01 T00740054  RH  087%=      5-min Rain = 0
KMC4 101101Z 07005KT 07/05 A3027 RMK A01 T00740053  RH  087%=      5-min Rain = 0
KMC4 101102Z 07003KT 07/05 A3027 RMK A01 T00740054  RH  087%=      5-min Rain = 0
KMC4 101103Z 07004KT 07/05 A3027 RMK A01 T00740054  RH  087%=      5-min Rain = 0
KMC4 101104Z 07004KT 07/05 A3027 RMK A01 T00740054  RH  087%=      5-min Rain = 0
KMC4 101105Z 07004KT 07/06 A3027 RMK A01 T00740055  RH  088%=      5-min Rain = 0
KMC4 101106Z 08005KT 07/06 A3027 RMK A01 T00740055  RH  088%=      5-min Rain = 0
KMC4 101107Z 07005KT 07/06 A3027 RMK A01 T00740055  RH  088%=      5-min Rain = 0
KMC4 101108Z 06003KT 07/06 A3027 RMK A01 T00740055  RH  088%=      5-min Rain = 0
KMC4 101109Z 07003KT 07/05 A3028 RMK A01 T00740054  RH  087%=      5-min Rain = 0
KMC4 101110Z 07003KT 07/06 A3027 RMK A01 T00740055  RH  088%=      5-min Rain = 0
KMC4 101111Z 06003KT 07/06 A3027 RMK A01 T00740055  RH  088%=      5-min Rain = 0
KMC4 101112Z 06004KT 07/06 A3027 RMK A01 T00740056  RH  088%=      5-min Rain = 0
KMC4 101113Z 06004KT 07/06 A3027 RMK A01 T00740056  RH  088%=      5-min Rain = 0
KMC4 101114Z 06004KT 07/06 A3027 RMK A01 T00740056  RH  089%=      5-min Rain = 0
KMC4 101115Z 07004KT 07/06 A3027 RMK A01 T00740056  RH  089%=      5-min Rain = 0
KMC4 101116Z 07004KT 07/06 A3027 RMK A01 T00740056  RH  089%=      5-min Rain = 0
KMC4 101117Z 07005KT 07/06 A3027 RMK A01 T00740057  RH  089%=      5-min Rain = 0
KMC4 101118Z 07006KT 07/06 A3027 RMK A01 T00740056  RH  089%=      5-min Rain = 0
KMC4 101119Z 08006KT 07/06 A3026 RMK A01 T00740056  RH  088%=      5-min Rain = 0
KMC4 101120Z 07005KT 07/06 A3026 RMK A01 T00740056  RH  088%=      5-min Rain = 0
KMC4 101121Z 08006KT 07/06 A3026 RMK A01 T00740057  RH  089%=      5-min Rain = 0
KMC4 101122Z 08005KT 07/06 A3026 RMK A01 T00740056  RH  089%=      5-min Rain = 0
KMC4 101123Z 07005KT 07/06 A3026 RMK A01 T00740056  RH  089%=      5-min Rain = 0
KMC4 101124Z 08005KT 07/06 A3026 RMK A01 T00730055  RH  088%=      5-min Rain = 0
KMC4 101125Z 08005KT 07/05 A3026 RMK A01 T00740053  RH  087%=      5-min Rain = 0
KMC4 101126Z 08006KT 07/05 A3026 RMK A01 T00740053  RH  087%=      5-min Rain = 0
KMC4 101127Z 08006KT 07/05 A3026 RMK A01 T00740053  RH  086%=      5-min Rain = 0
KMC4 101128Z 08005KT 08/05 A3026 RMK A01 T00750052  RH  086%=      5-min Rain = 0
KMC4 101129Z 08006KT 08/05 A3026 RMK A01 T00750053  RH  086%=      5-min Rain = 0
KMC4 101130Z 08006KT 08/05 A3026 RMK A01 T00750054  RH  086%=      5-min Rain = 0
KMC4 101131Z 08005KT 08/05 A3026 RMK A01 T00750054  RH  087%=      5-min Rain = 0
KMC4 101132Z 08006KT 08/05 A3026 RMK A01 T00750054  RH  087%=      5-min Rain = 0
KMC4 101133Z 08005KT 07/05 A3026 RMK A01 T00740054  RH  087%=      5-min Rain = 0
KMC4 101134Z 08006KT 08/06 A3025 RMK A01 T00750055  RH  087%=      5-min Rain = 0
KMC4 101135Z 08005KT 07/05 A3025 RMK A01 T00740054  RH  087%=      5-min Rain = 0
KMC4 101136Z 08006KT 07/06 A3025 RMK A01 T00740055  RH  087%=      5-min Rain = 0
KMC4 101137Z 08004KT 07/05 A3026 RMK A01 T00740054  RH  087%=      5-min Rain = 0
KMC4 101138Z 08005KT 07/05 A3026 RMK A01 T00740054  RH  087%=      5-min Rain = 0
KMC4 101139Z 08005KT 07/05 A3026 RMK A01 T00740051  RH  085%=      5-min Rain = 0
KMC4 101140Z 08005KT 08/05 A3026 RMK A01 T00750051  RH  085%=      5-min Rain = 0
KMC4 101141Z 08005KT 08/05 A3026 RMK A01 T00750051  RH  085%=      5-min Rain = 0
KMC4 101142Z 08005KT 08/05 A3026 RMK A01 T00750050  RH  084%=      5-min Rain = 0
KMC4 101143Z 07004KT 08/05 A3026 RMK A01 T00760050  RH  084%=      5-min Rain = 0
KMC4 101144Z 06004KT 08/05 A3026 RMK A01 T00760050  RH  084%=      5-min Rain = 0
KMC4 101145Z 06004KT 08/05 A3026 RMK A01 T00760050  RH  084%=      5-min Rain = 0
KMC4 101146Z 06004KT 08/05 A3026 RMK A01 T00760051  RH  084%=      5-min Rain = 0
KMC4 101147Z 06004KT 08/05 A3026 RMK A01 T00760051  RH  084%=      5-min Rain = 0
KMC4 101148Z 06005KT 08/05 A3026 RMK A01 T00760053  RH  085%=      5-min Rain = 0
KMC4 101149Z 06005KT 08/05 A3026 RMK A01 T00760054  RH  086%=      5-min Rain = 0
KMC4 101150Z 07005KT 08/05 A3026 RMK A01 T00760053  RH  086%=      5-min Rain = 0
KMC4 101151Z 07005KT 08/05 A3026 RMK A01 T00760054  RH  086%=      5-min Rain = 0
KMC4 101152Z 07004KT 08/05 A3026 RMK A01 T00750053  RH  086%=      5-min Rain = 0
KMC4 101153Z 08004KT 08/05 A3026 RMK A01 T00750053  RH  086%=      5-min Rain = 0
KMC4 101154Z 08005KT 08/05 A3026 RMK A01 T00750053  RH  086%=      5-min Rain = 0
KMC4 101155Z 08005KT 08/05 A3026 RMK A01 T00750053  RH  086%=      5-min Rain = 0
KMC4 101156Z 08006KT 08/05 A3025 RMK A01 T00750052  RH  085%=      5-min Rain = 0
KMC4 101157Z 09006KT 08/05 A3025 RMK A01 T00760052  RH  085%=      5-min Rain = 0
KMC4 101158Z 09006KT 08/05 A3025 RMK A01 T00760050  RH  084%=      5-min Rain = 0
KMC4 101159Z 09006KT 08/05 A3025 RMK A01 T00760048  RH  082%=      5-min Rain = 0
KMC4 101200Z 10005KT 08/05 A3025 RMK A01 T00770047  RH  081%=      5-min Rain = 0
KMC4 101201Z 10005KT 08/05 A3026 RMK A01 T00780047  RH  081%=      5-min Rain = 0
KMC4 101202Z 10004KT 08/05 A3026 RMK A01 T00780046  RH  080%=      5-min Rain = 0
KMC4 101203Z 10004KT 08/05 A3026 RMK A01 T00780047  RH  081%=      5-min Rain = 0
KMC4 101204Z 10004KT 08/05 A3026 RMK A01 T00780047  RH  081%=      5-min Rain = 0
KMC4 101205Z 11003KT 08/05 A3026 RMK A01 T00780047  RH  081%=      5-min Rain = 0
KMC4 101206Z 11004KT 08/05 A3026 RMK A01 T00780048  RH  081%=      5-min Rain = 0
KMC4 101207Z 11003KT 08/05 A3027 RMK A01 T00780046  RH  080%=      5-min Rain = 0
KMC4 101208Z 11003KT 08/05 A3027 RMK A01 T00780046  RH  080%=      5-min Rain = 0
KMC4 101209Z 12003KT 08/05 A3027 RMK A01 T00780047  RH  081%=      5-min Rain = 0
KMC4 101210Z 11003KT 08/05 A3027 RMK A01 T00780048  RH  081%=      5-min Rain = 0
KMC4 101211Z 10003KT 08/05 A3027 RMK A01 T00790047  RH  081%=      5-min Rain = 0
KMC4 101212Z 10003KT 08/05 A3026 RMK A01 T00790046  RH  080%=      5-min Rain = 0
KMC4 101213Z 10004KT 08/05 A3026 RMK A01 T00790045  RH  079%=      5-min Rain = 0
KMC4 101214Z 10003KT 08/05 A3026 RMK A01 T00790046  RH  079%=      5-min Rain = 0
KMC4 101215Z 10003KT 08/05 A3026 RMK A01 T00790047  RH  080%=      5-min Rain = 0
KMC4 101216Z 11003KT 08/05 A3027 RMK A01 T00790047  RH  080%=      5-min Rain = 0
KMC4 101217Z 10005KT 08/05 A3026 RMK A01 T00790046  RH  079%=      5-min Rain = 0
KMC4 101218Z 11004KT 08/05 A3026 RMK A01 T00790045  RH  079%=      5-min Rain = 0
KMC4 101219Z 12005KT 08/05 A3026 RMK A01 T00800046  RH  079%=      5-min Rain = 0
KMC4 101220Z 11004KT 08/05 A3027 RMK A01 T00800045  RH  079%=      5-min Rain = 0
KMC4 101221Z 10004KT 08/05 A3026 RMK A01 T00800047  RH  080%=      5-min Rain = 0
KMC4 101222Z 10004KT 08/05 A3026 RMK A01 T00790048  RH  080%=      5-min Rain = 0
KMC4 101223Z 10003KT 08/05 A3027 RMK A01 T00790047  RH  080%=      5-min Rain = 0
KMC4 101224Z 10003KT 08/05 A3027 RMK A01 T00790048  RH  081%=      5-min Rain = 0
KMC4 101225Z 09003KT 08/05 A3027 RMK A01 T00790049  RH  081%=      5-min Rain = 0
KMC4 101226Z 08003KT 08/05 A3027 RMK A01 T00780048  RH  081%=      5-min Rain = 0
KMC4 101227Z 08003KT 08/05 A3027 RMK A01 T00780049  RH  082%=      5-min Rain = 0
KMC4 101228Z 08002KT 08/05 A3027 RMK A01 T00780051  RH  083%=      5-min Rain = 0
KMC4 101229Z 08002KT 08/05 A3027 RMK A01 T00770052  RH  084%=      5-min Rain = 0
KMC4 101230Z 09002KT 08/05 A3027 RMK A01 T00770051  RH  084%=      5-min Rain = 0
KMC4 101231Z 09002KT 08/05 A3027 RMK A01 T00770051  RH  084%=      5-min Rain = 0
KMC4 101232Z 09001KT 08/05 A3028 RMK A01 T00770051  RH  084%=      5-min Rain = 0
KMC4 101233Z 09002KT 08/05 A3028 RMK A01 T00770052  RH  084%=      5-min Rain = 0
KMC4 101234Z 10002KT 08/05 A3028 RMK A01 T00760050  RH  084%=      5-min Rain = 0
KMC4 101235Z 11002KT 08/05 A3028 RMK A01 T00760050  RH  084%=      5-min Rain = 0
KMC4 101236Z 10003KT 08/05 A3028 RMK A01 T00760051  RH  084%=      5-min Rain = 0
KMC4 101237Z 10003KT 08/05 A3028 RMK A01 T00760052  RH  085%=      5-min Rain = 0
KMC4 101238Z 11003KT 08/05 A3027 RMK A01 T00760052  RH  085%=      5-min Rain = 0
KMC4 101239Z 10003KT 08/05 A3027 RMK A01 T00760054  RH  086%=      5-min Rain = 0
KMC4 101240Z 11003KT 08/06 A3027 RMK A01 T00760055  RH  086%=      5-min Rain = 0
KMC4 101241Z 10003KT 08/05 A3027 RMK A01 T00760054  RH  086%=      5-min Rain = 0
KMC4 101242Z 09003KT 08/06 A3027 RMK A01 T00760055  RH  087%=      5-min Rain = 0
KMC4 101243Z 08004KT 08/05 A3027 RMK A01 T00750054  RH  086%=      5-min Rain = 0
KMC4 101244Z 09004KT 08/05 A3027 RMK A01 T00750052  RH  085%=      5-min Rain = 0
KMC4 101245Z 08005KT 08/05 A3027 RMK A01 T00750052  RH  085%=      5-min Rain = 0
KMC4 101246Z 09005KT 08/05 A3027 RMK A01 T00750053  RH  086%=      5-min Rain = 0
KMC4 101247Z 09005KT 08/05 A3027 RMK A01 T00750053  RH  086%=      5-min Rain = 0
KMC4 101248Z 09005KT 08/05 A3027 RMK A01 T00750053  RH  086%=      5-min Rain = 0
KMC4 101249Z 09005KT 08/05 A3026 RMK A01 T00750053  RH  086%=      5-min Rain = 0
KMC4 101250Z 09006KT 08/05 A3026 RMK A01 T00750054  RH  086%=      5-min Rain = 0
KMC4 101251Z 09006KT 08/05 A3026 RMK A01 T00750054  RH  086%=      5-min Rain = 0
KMC4 101252Z 09006KT 08/05 A3026 RMK A01 T00750054  RH  086%=      5-min Rain = 0
KMC4 101253Z 10005KT 08/05 A3026 RMK A01 T00750054  RH  087%=      5-min Rain = 0
KMC4 101254Z 09006KT 07/05 A3026 RMK A01 T00740054  RH  087%=      5-min Rain = 0
KMC4 101255Z 09006KT 07/05 A3026 RMK A01 T00740054  RH  087%=      5-min Rain = 0
KMC4 101256Z 09005KT 07/05 A3026 RMK A01 T00740054  RH  087%=      5-min Rain = 0
KMC4 101257Z 09005KT 07/06 A3026 RMK A01 T00740055  RH  087%=      5-min Rain = 0
KMC4 101258Z 10005KT 07/06 A3026 RMK A01 T00740055  RH  087%=      5-min Rain = 0
KMC4 101259Z 10004KT 07/06 A3026 RMK A01 T00740055  RH  087%=      5-min Rain = 0
KMC4 101300Z 10005KT 07/06 A3026 RMK A01 T00740055  RH  087%=      5-min Rain = 0
KMC4 101301Z 10004KT 08/06 A3026 RMK A01 T00750055  RH  088%=      5-min Rain = 0
KMC4 101302Z 09004KT 07/06 A3026 RMK A01 T00740055  RH  088%=      5-min Rain = 0
KMC4 101303Z 10004KT 07/05 A3026 RMK A01 T00740054  RH  087%=      5-min Rain = 0
KMC4 101304Z 10003KT 07/05 A3026 RMK A01 T00740054  RH  087%=      5-min Rain = 0
KMC4 101305Z 11002KT 07/06 A3027 RMK A01 T00740055  RH  087%=      5-min Rain = 0
KMC4 101306Z 12002KT 07/06 A3027 RMK A01 T00740055  RH  088%=      5-min Rain = 0
KMC4 101307Z 13003KT 07/06 A3027 RMK A01 T00740055  RH  088%=      5-min Rain = 0
KMC4 101308Z 14003KT 07/05 A3027 RMK A01 T00740054  RH  087%=      5-min Rain = 0
KMC4 101309Z 14003KT 07/05 A3027 RMK A01 T00740054  RH  087%=      5-min Rain = 0
KMC4 101310Z 13004KT 07/06 A3027 RMK A01 T00740055  RH  088%=      5-min Rain = 0
KMC4 101311Z 12005KT 07/06 A3026 RMK A01 T00740055  RH  088%=      5-min Rain = 0
KMC4 101312Z 12005KT 07/06 A3026 RMK A01 T00740056  RH  088%=      5-min Rain = 0
KMC4 101313Z 11005KT 07/06 A3026 RMK A01 T00740056  RH  089%=      5-min Rain = 0
KMC4 101314Z 12004KT 07/06 A3026 RMK A01 T00730056  RH  089%=      5-min Rain = 0
KMC4 101315Z 12004KT 07/06 A3027 RMK A01 T00740057  RH  089%=      5-min Rain = 0
KMC4 101316Z 12004KT 07/06 A3026 RMK A01 T00730056  RH  089%=      5-min Rain = 0
KMC4 101317Z 11004KT 07/06 A3026 RMK A01 T00730056  RH  089%=      5-min Rain = 0
KMC4 101318Z 11004KT 07/06 A3026 RMK A01 T00730056  RH  089%=      5-min Rain = 0
KMC4 101319Z 11004KT 07/06 A3026 RMK A01 T00730055  RH  088%=      5-min Rain = 0
KMC4 101320Z 12004KT 07/06 A3026 RMK A01 T00730055  RH  088%=      5-min Rain = 0
KMC4 101321Z 11004KT 07/05 A3026 RMK A01 T00740053  RH  087%=      5-min Rain = 0
KMC4 101322Z 12005KT 07/05 A3026 RMK A01 T00740052  RH  086%=      5-min Rain = 0
KMC4 101323Z 12006KT 07/05 A3026 RMK A01 T00740051  RH  085%=      5-min Rain = 0
KMC4 101324Z 12005KT 08/05 A3026 RMK A01 T00750049  RH  084%=      5-min Rain = 0
KMC4 101325Z 12006KT 08/05 A3026 RMK A01 T00760049  RH  083%=      5-min Rain = 0
KMC4 101326Z 11006KT 08/05 A3026 RMK A01 T00760049  RH  083%=      5-min Rain = 0
KMC4 101327Z 11006KT 08/05 A3026 RMK A01 T00760048  RH  083%=      5-min Rain = 0
KMC4 101328Z 12005KT 08/05 A3026 RMK A01 T00760048  RH  082%=      5-min Rain = 0
KMC4 101329Z 11005KT 08/05 A3026 RMK A01 T00760048  RH  083%=      5-min Rain = 0
KMC4 101330Z 12005KT 08/05 A3026 RMK A01 T00760049  RH  083%=      5-min Rain = 0
KMC4 101331Z 11005KT 08/05 A3026 RMK A01 T00760048  RH  082%=      5-min Rain = 0
KMC4 101332Z 12006KT 08/05 A3026 RMK A01 T00760047  RH  082%=      5-min Rain = 0
KMC4 101333Z 12007KT 08/05 A3026 RMK A01 T00760046  RH  081%=      5-min Rain = 0
KMC4 101334Z 12006KT 08/05 A3026 RMK A01 T00760046  RH  081%=      5-min Rain = 0
KMC4 101335Z 12005KT 08/05 A3026 RMK A01 T00760045  RH  081%=      5-min Rain = 0
KMC4 101336Z 12005KT 08/05 A3026 RMK A01 T00760046  RH  081%=      5-min Rain = 0
KMC4 101337Z 12004KT 08/05 A3026 RMK A01 T00760046  RH  081%=      5-min Rain = 0
KMC4 101338Z 12005KT 08/05 A3026 RMK A01 T00760046  RH  082%=      5-min Rain = 0
KMC4 101339Z 12005KT 08/05 A3026 RMK A01 T00760045  RH  081%=      5-min Rain = 0
KMC4 101340Z 12006KT 08/05 A3026 RMK A01 T00760045  RH  081%=      5-min Rain = 0
KMC4 101341Z 12006KT 08/04 A3026 RMK A01 T00760044  RH  080%=      5-min Rain = 0
KMC4 101342Z 12006KT 08/05 A3026 RMK A01 T00760045  RH  081%=      5-min Rain = 0
KMC4 101343Z 12005KT 08/05 A3026 RMK A01 T00760046  RH  081%=      5-min Rain = 0
KMC4 101344Z 12006KT 08/05 A3026 RMK A01 T00760046  RH  081%=      5-min Rain = 0
KMC4 101345Z 12006KT 08/05 A3026 RMK A01 T00760046  RH  081%=      5-min Rain = 0
KMC4 101346Z 12006KT 08/04 A3026 RMK A01 T00750044  RH  081%=      5-min Rain = 0
KMC4 101347Z 12005KT 08/04 A3026 RMK A01 T00750044  RH  081%=      5-min Rain = 0
KMC4 101348Z 12005KT 08/04 A3026 RMK A01 T00750044  RH  080%=      5-min Rain = 0
KMC4 101349Z 11005KT 08/04 A3026 RMK A01 T00750044  RH  081%=      5-min Rain = 0
KMC4 101350Z 11005KT 08/04 A3026 RMK A01 T00750044  RH  080%=      5-min Rain = 0
KMC4 101351Z 11005KT 08/05 A3026 RMK A01 T00750045  RH  081%=      5-min Rain = 0
KMC4 101352Z 12005KT 08/04 A3026 RMK A01 T00750044  RH  081%=      5-min Rain = 0
KMC4 101353Z 11005KT 08/05 A3026 RMK A01 T00750045  RH  081%=      5-min Rain = 0
KMC4 101354Z 12006KT 08/05 A3026 RMK A01 T00750045  RH  081%=      5-min Rain = 0
KMC4 101355Z 11006KT 08/05 A3025 RMK A01 T00750046  RH  082%=      5-min Rain = 0
KMC4 101356Z 11005KT 08/05 A3025 RMK A01 T00750045  RH  082%=      5-min Rain = 0
KMC4 101357Z 11006KT 08/05 A3025 RMK A01 T00750045  RH  081%=      5-min Rain = 0
KMC4 101358Z 12005KT 08/04 A3025 RMK A01 T00750044  RH  081%=      5-min Rain = 0
KMC4 101359Z 11004KT 08/04 A3026 RMK A01 T00750044  RH  081%=      5-min Rain = 0
KMC4 101400Z 11004KT 08/05 A3025 RMK A01 T00750045  RH  081%=      5-min Rain = 0
KMC4 101401Z 11004KT 08/05 A3025 RMK A01 T00750045  RH  082%=      5-min Rain = 0
KMC4 101402Z 11005KT 07/05 A3025 RMK A01 T00740045  RH  081%=      5-min Rain = 0
KMC4 101403Z 11005KT 07/04 A3025 RMK A01 T00740044  RH  081%=      5-min Rain = 0
KMC4 101404Z 11005KT 07/04 A3025 RMK A01 T00740044  RH  081%=      5-min Rain = 0
KMC4 101405Z 11005KT 08/04 A3025 RMK A01 T00750044  RH  081%=      5-min Rain = 0
KMC4 101406Z 11006KT 07/04 A3025 RMK A01 T00740044  RH  081%=      5-min Rain = 0
KMC4 101407Z 11006KT 07/04 A3025 RMK A01 T00740044  RH  081%=      5-min Rain = 0
KMC4 101408Z 10005KT 07/04 A3025 RMK A01 T00740043  RH  081%=      5-min Rain = 0
KMC4 101409Z 10005KT 07/04 A3025 RMK A01 T00740044  RH  082%=      5-min Rain = 0
KMC4 101410Z 11005KT 07/04 A3025 RMK A01 T00740044  RH  081%=      5-min Rain = 0
KMC4 101411Z 10005KT 07/04 A3025 RMK A01 T00740042  RH  081%=      5-min Rain = 0
KMC4 101412Z 11004KT 07/04 A3025 RMK A01 T00740043  RH  081%=      5-min Rain = 0
KMC4 101413Z 10005KT 07/04 A3025 RMK A01 T00740043  RH  081%=      5-min Rain = 0
KMC4 101414Z 10004KT 07/04 A3025 RMK A01 T00740042  RH  080%=      5-min Rain = 0
KMC4 101415Z 11005KT 07/04 A3025 RMK A01 T00740043  RH  081%=      5-min Rain = 0
KMC4 101416Z 11005KT 07/04 A3025 RMK A01 T00740043  RH  081%=      5-min Rain = 0
KMC4 101417Z 11004KT 07/04 A3025 RMK A01 T00740043  RH  080%=      5-min Rain = 0
KMC4 101418Z 11005KT 07/04 A3025 RMK A01 T00740042  RH  080%=      5-min Rain = 0
KMC4 101419Z 11004KT 07/04 A3025 RMK A01 T00740041  RH  080%=      5-min Rain = 0
KMC4 101420Z 11004KT 07/04 A3025 RMK A01 T00740042  RH  080%=      5-min Rain = 0
KMC4 101421Z 11004KT 07/04 A3025 RMK A01 T00740042  RH  080%=      5-min Rain = 0
KMC4 101422Z 11004KT 07/04 A3025 RMK A01 T00740042  RH  080%=      5-min Rain = 0
KMC4 101423Z 11004KT 07/04 A3025 RMK A01 T00740042  RH  080%=      5-min Rain = 0
KMC4 101424Z 10004KT 07/04 A3025 RMK A01 T00740042  RH  080%=      5-min Rain = 0
KMC4 101425Z 10004KT 07/04 A3025 RMK A01 T00740042  RH  080%=      5-min Rain = 0
KMC4 101426Z 10004KT 07/04 A3025 RMK A01 T00740042  RH  080%=      5-min Rain = 0
KMC4 101427Z 09004KT 07/04 A3025 RMK A01 T00740042  RH  080%=      5-min Rain = 0
KMC4 101428Z 10004KT 08/04 A3025 RMK A01 T00750042  RH  080%=      5-min Rain = 0
KMC4 101429Z 10004KT 07/04 A3025 RMK A01 T00740041  RH  079%=      5-min Rain = 0
KMC4 101430Z 11003KT 07/04 A3025 RMK A01 T00740042  RH  080%=      5-min Rain = 0
KMC4 101431Z 11004KT 08/04 A3025 RMK A01 T00750043  RH  080%=      5-min Rain = 0
KMC4 101432Z 11005KT 08/04 A3025 RMK A01 T00750043  RH  080%=      5-min Rain = 0
KMC4 101433Z 12006KT 08/04 A3025 RMK A01 T00750041  RH  079%=      5-min Rain = 0
KMC4 101434Z 11006KT 08/04 A3025 RMK A01 T00760042  RH  079%=      5-min Rain = 0
KMC4 101435Z 11006KT 08/04 A3025 RMK A01 T00760041  RH  079%=      5-min Rain = 0
KMC4 101436Z 12005KT 08/04 A3025 RMK A01 T00760042  RH  079%=      5-min Rain = 0
KMC4 101437Z 12005KT 08/04 A3024 RMK A01 T00760043  RH  080%=      5-min Rain = 0
KMC4 101438Z 12007KT 08/04 A3024 RMK A01 T00760044  RH  080%=      5-min Rain = 0
KMC4 101439Z 12007KT 08/04 A3024 RMK A01 T00760042  RH  079%=      5-min Rain = 0
KMC4 101440Z 12007KT 08/04 A3024 RMK A01 T00760042  RH  079%=      5-min Rain = 0
KMC4 101441Z 12007KT 08/04 A3024 RMK A01 T00760044  RH  080%=      5-min Rain = 0
KMC4 101442Z 12008KT 08/04 A3024 RMK A01 T00760043  RH  079%=      5-min Rain = 0
KMC4 101443Z 12008KT 08/04 A3024 RMK A01 T00770042  RH  079%=      5-min Rain = 0
KMC4 101444Z 12008KT 08/04 A3024 RMK A01 T00770042  RH  079%=      5-min Rain = 0
KMC4 101445Z 12008KT 08/04 A3024 RMK A01 T00770042  RH  079%=      5-min Rain = 0
KMC4 101446Z 13009KT 08/04 A3024 RMK A01 T00780041  RH  077%=      5-min Rain = 0
KMC4 101447Z 13008KT 08/04 A3024 RMK A01 T00780043  RH  078%=      5-min Rain = 0
KMC4 101448Z 12008KT 08/04 A3024 RMK A01 T00780043  RH  079%=      5-min Rain = 0
KMC4 101449Z 12007KT 08/04 A3024 RMK A01 T00780043  RH  078%=      5-min Rain = 0
KMC4 101450Z 13007KT 08/04 A3024 RMK A01 T00790043  RH  078%=      5-min Rain = 0
KMC4 101451Z 13007KT 08/04 A3024 RMK A01 T00790043  RH  078%=      5-min Rain = 0
KMC4 101452Z 13007KT 08/04 A3024 RMK A01 T00790044  RH  078%=      5-min Rain = 0
KMC4 101453Z 13007KT 08/04 A3024 RMK A01 T00800043  RH  078%=      5-min Rain = 0
KMC4 101454Z 13007KT 08/04 A3024 RMK A01 T00800044  RH  078%=      5-min Rain = 0
KMC4 101455Z 13007KT 08/04 A3024 RMK A01 T00800044  RH  078%=      5-min Rain = 0
KMC4 101456Z 13009KT 08/04 A3024 RMK A01 T00810043  RH  077%=      5-min Rain = 0
KMC4 101457Z 13009KT 08/04 A3024 RMK A01 T00810042  RH  076%=      5-min Rain = 0
KMC4 101458Z 13009KT 08/04 A3024 RMK A01 T00820042  RH  076%=      5-min Rain = 0
KMC4 101459Z 14010KT 08/04 A3024 RMK A01 T00830042  RH  076%=      5-min Rain = 0
KMC4 101500Z 14010KT 08/04 A3024 RMK A01 T00840042  RH  075%=      5-min Rain = 0
KMC4 101501Z 13009KT 08/04 A3024 RMK A01 T00840040  RH  074%=      5-min Rain = 0
KMC4 101502Z 13008KT 08/04 A3024 RMK A01 T00840041  RH  074%=      5-min Rain = 0
KMC4 101503Z 14008KT 08/04 A3024 RMK A01 T00840042  RH  075%=      5-min Rain = 0
KMC4 101504Z 15008KT 09/04 A3024 RMK A01 T00850044  RH  075%=      5-min Rain = 0
KMC4 101505Z 14009KT 09/04 A3024 RMK A01 T00850041  RH  074%=      5-min Rain = 0
KMC4 101506Z 14009KT 09/04 A3024 RMK A01 T00850042  RH  074%=      5-min Rain = 0
KMC4 101507Z 14009KT 09/04 A3024 RMK A01 T00850042  RH  074%=      5-min Rain = 0
KMC4 101508Z 14008KT 09/04 A3024 RMK A01 T00850041  RH  074%=      5-min Rain = 0
KMC4 101509Z 15010KT 09/04 A3024 RMK A01 T00860042  RH  074%=      5-min Rain = 0
KMC4 101510Z 14009KT 09/04 A3024 RMK A01 T00860041  RH  073%=      5-min Rain = 0
KMC4 101511Z 14010KT 09/04 A3024 RMK A01 T00850042  RH  074%=      5-min Rain = 0
KMC4 101512Z 14011KT 09/04 A3024 RMK A01 T00860042  RH  074%=      5-min Rain = 0
KMC4 101513Z 14011KT 09/04 A3024 RMK A01 T00860041  RH  073%=      5-min Rain = 0
KMC4 101514Z 14009KT 09/04 A3024 RMK A01 T00860041  RH  073%=      5-min Rain = 0
KMC4 101515Z 14009KT 09/04 A3024 RMK A01 T00860041  RH  073%=      5-min Rain = 0
KMC4 101516Z 15010KT 09/04 A3024 RMK A01 T00870042  RH  073%=      5-min Rain = 0
KMC4 101517Z 14011KT 09/04 A3024 RMK A01 T00870041  RH  073%=      5-min Rain = 0
KMC4 101518Z 14009KT 09/04 A3024 RMK A01 T00870041  RH  072%=      5-min Rain = 0
KMC4 101519Z 14009KT 09/04 A3025 RMK A01 T00880042  RH  073%=      5-min Rain = 0
KMC4 101520Z 14007KT 09/05 A3025 RMK A01 T00890046  RH  075%=      5-min Rain = 0
KMC4 101521Z 13008KT 09/05 A3025 RMK A01 T00890045  RH  074%=      5-min Rain = 0
KMC4 101522Z 13011KT 09/05 A3025 RMK A01 T00910045  RH  073%=      5-min Rain = 0
KMC4 101523Z 14010KT 09/04 A3025 RMK A01 T00910043  RH  072%=      5-min Rain = 0
KMC4 101524Z 13010KT 09/05 A3025 RMK A01 T00920045  RH  072%=      5-min Rain = 0
KMC4 101525Z 14012KT 09/05 A3025 RMK A01 T00930045  RH  072%=      5-min Rain = 0
KMC4 101526Z 14010KT 09/04 A3025 RMK A01 T00940043  RH  071%=      5-min Rain = 0
KMC4 101527Z 14012KT 09/04 A3025 RMK A01 T00940043  RH  071%=      5-min Rain = 0
KMC4 101528Z 14011KT 09/04 A3025 RMK A01 T00930043  RH  071%=      5-min Rain = 0
KMC4 101529Z 14010KT 09/05 A3025 RMK A01 T00940047  RH  073%=      5-min Rain = 0
KMC4 101530Z 14012KT 09/05 A3025 RMK A01 T00930048  RH  073%=      5-min Rain = 0
KMC4 101531Z 14012KT 09/04 A3025 RMK A01 T00930043  RH  071%=      5-min Rain = 0
KMC4 101532Z 14009KT 09/05 A3025 RMK A01 T00930045  RH  072%=      5-min Rain = 0
KMC4 101533Z 14009KT 09/05 A3025 RMK A01 T00930045  RH  072%=      5-min Rain = 0
KMC4 101534Z 13010KT 09/05 A3025 RMK A01 T00940046  RH  072%=      5-min Rain = 0
KMC4 101535Z 13011KT 09/05 A3025 RMK A01 T00940046  RH  072%=      5-min Rain = 0
KMC4 101536Z 14009KT 10/05 A3025 RMK A01 T00950049  RH  073%=      5-min Rain = 0
KMC4 101537Z 14011KT 10/05 A3025 RMK A01 T00960048  RH  072%=      5-min Rain = 0
KMC4 101538Z 14011KT 10/05 A3025 RMK A01 T00970045  RH  070%=      5-min Rain = 0
KMC4 101539Z 14011KT 10/05 A3024 RMK A01 T00970046  RH  071%=      5-min Rain = 0
KMC4 101540Z 13011KT 10/05 A3024 RMK A01 T00970046  RH  070%=      5-min Rain = 0
KMC4 101541Z 13009KT 10/05 A3024 RMK A01 T00980047  RH  071%=      5-min Rain = 0
KMC4 101542Z 14011KT 10/05 A3024 RMK A01 T00990050  RH  071%=      5-min Rain = 0
KMC4 101543Z 14011KT 10/05 A3025 RMK A01 T01000046  RH  069%=      5-min Rain = 0
KMC4 101544Z 14010KT 10/05 A3025 RMK A01 T01000045  RH  068%=      5-min Rain = 0
KMC4 101545Z 14011KT 10/05 A3025 RMK A01 T01000045  RH  068%=      5-min Rain = 0
KMC4 101546Z 14012KT 10/05 A3025 RMK A01 T01000045  RH  069%=      5-min Rain = 0
KMC4 101547Z 14011KT 10/05 A3025 RMK A01 T01000045  RH  068%=      5-min Rain = 0
KMC4 101548Z 14008KT 10/05 A3025 RMK A01 T01010048  RH  070%=      5-min Rain = 0
KMC4 101549Z 15009KT 10/05 A3025 RMK A01 T01020049  RH  070%=      5-min Rain = 0
KMC4 101550Z 15010KT 10/05 A3025 RMK A01 T01030046  RH  068%=      5-min Rain = 0
KMC4 101551Z 15009KT 10/05 A3025 RMK A01 T01030047  RH  068%=      5-min Rain = 0
KMC4 101552Z 14009KT 10/05 A3025 RMK A01 T01030047  RH  068%=      5-min Rain = 0
KMC4 101553Z 15011KT 10/05 A3025 RMK A01 T01040048  RH  068%=      5-min Rain = 0
KMC4 101554Z 15009KT 10/05 A3025 RMK A01 T01040046  RH  067%=      5-min Rain = 0
KMC4 101555Z 14009KT 11/05 A3025 RMK A01 T01050049  RH  069%=      5-min Rain = 0
KMC4 101556Z 14011KT 11/05 A3025 RMK A01 T01060048  RH  067%=      5-min Rain = 0
KMC4 101557Z 14013KT 11/05 A3025 RMK A01 T01070049  RH  067%=      5-min Rain = 0
KMC4 101558Z 14013KT 11/05 A3025 RMK A01 T01070047  RH  066%=      5-min Rain = 0
KMC4 101559Z 14012KT 11/05 A3025 RMK A01 T01070045  RH  066%=      5-min Rain = 0
KMC4 101600Z 14011KT 11/05 A3025 RMK A01 T01070047  RH  067%=      5-min Rain = 0
KMC4 101601Z 15011KT 11/05 A3025 RMK A01 T01070046  RH  066%=      5-min Rain = 0
KMC4 101602Z 15010KT 11/05 A3025 RMK A01 T01080046  RH  066%=      5-min Rain = 0
KMC4 101603Z 16008KT 11/05 A3026 RMK A01 T01080047  RH  066%=      5-min Rain = 0
KMC4 101604Z 14008KT 11/05 A3026 RMK A01 T01090047  RH  066%=      5-min Rain = 0
KMC4 101605Z 15011KT 11/05 A3025 RMK A01 T01090047  RH  065%=      5-min Rain = 0
KMC4 101606Z 15010KT 11/05 A3025 RMK A01 T01100047  RH  065%=      5-min Rain = 0
KMC4 101607Z 14011KT 11/05 A3025 RMK A01 T01100048  RH  066%=      5-min Rain = 0
KMC4 101608Z 13011KT 11/05 A3025 RMK A01 T01110048  RH  065%=      5-min Rain = 0
KMC4 101609Z 13012KT 11/05 A3025 RMK A01 T01110048  RH  065%=      5-min Rain = 0
KMC4 101610Z 14012KT 11/05 A3025 RMK A01 T01110047  RH  065%=      5-min Rain = 0
KMC4 101611Z 15012KT 11/05 A3025 RMK A01 T01110049  RH  066%=      5-min Rain = 0
KMC4 101612Z 14012KT 11/05 A3025 RMK A01 T01110049  RH  066%=      5-min Rain = 0
KMC4 101613Z 14011KT 11/05 A3025 RMK A01 T01120051  RH  066%=      5-min Rain = 0
KMC4 101614Z 15012KT 11/05 A3025 RMK A01 T01130050  RH  066%=      5-min Rain = 0
KMC4 101615Z 14013KT 11/05 A3025 RMK A01 T01130048  RH  065%=      5-min Rain = 0
KMC4 101616Z 14013KT 11/05 A3025 RMK A01 T01120047  RH  064%=      5-min Rain = 0
KMC4 101617Z 14011KT 11/05 A3025 RMK A01 T01120047  RH  064%=      5-min Rain = 0
KMC4 101618Z 15012KT 11/05 A3025 RMK A01 T01110048  RH  065%=      5-min Rain = 0
KMC4 101619Z 15009KT 11/05 A3025 RMK A01 T01120051  RH  066%=      5-min Rain = 0
KMC4 101620Z 14011KT 11/05 A3025 RMK A01 T01130051  RH  066%=      5-min Rain = 0
KMC4 101621Z 14011KT 11/05 A3025 RMK A01 T01140051  RH  065%=      5-min Rain = 0
KMC4 101622Z 15010KT 11/05 A3025 RMK A01 T01140051  RH  065%=      5-min Rain = 0
KMC4 101623Z 16008KT 11/05 A3025 RMK A01 T01140050  RH  065%=      5-min Rain = 0
KMC4 101624Z 14010KT 12/05 A3025 RMK A01 T01150051  RH  065%=      5-min Rain = 0
KMC4 101625Z 14012KT 12/05 A3025 RMK A01 T01150050  RH  064%=      5-min Rain = 0
KMC4 101626Z 14011KT 12/05 A3025 RMK A01 T01150050  RH  065%=      5-min Rain = 0
KMC4 101627Z 14011KT 12/05 A3025 RMK A01 T01150052  RH  065%=      5-min Rain = 0
KMC4 101628Z 15013KT 12/05 A3025 RMK A01 T01150051  RH  065%=      5-min Rain = 0
KMC4 101629Z 16010KT 12/05 A3025 RMK A01 T01150052  RH  065%=      5-min Rain = 0
KMC4 101630Z 15012KT 12/05 A3025 RMK A01 T01150051  RH  065%=      5-min Rain = 0
KMC4 101631Z 15011KT 12/05 A3025 RMK A01 T01150052  RH  065%=      5-min Rain = 0
KMC4 101632Z 16011KT 12/05 A3024 RMK A01 T01150050  RH  064%=      5-min Rain = 0
KMC4 101633Z 15011KT 11/05 A3024 RMK A01 T01140050  RH  065%=      5-min Rain = 0
KMC4 101634Z 15009KT 11/05 A3024 RMK A01 T01140051  RH  065%=      5-min Rain = 0
KMC4 101635Z 14010KT 12/06 A3024 RMK A01 T01160057  RH  067%=      5-min Rain = 0
KMC4 101636Z 15010KT 12/06 A3024 RMK A01 T01180060  RH  067%=      5-min Rain = 0
KMC4 101637Z 14013KT 12/06 A3024 RMK A01 T01190056  RH  065%=      5-min Rain = 0
KMC4 101638Z 13013KT 12/05 A3024 RMK A01 T01190054  RH  064%=      5-min Rain = 0
KMC4 101639Z 14011KT 12/06 A3024 RMK A01 T01180056  RH  066%=      5-min Rain = 0
KMC4 101640Z 14012KT 12/05 A3024 RMK A01 T01180054  RH  065%=      5-min Rain = 0
KMC4 101641Z 14011KT 12/06 A3024 RMK A01 T01180055  RH  065%=      5-min Rain = 0
KMC4 101642Z 14012KT 12/06 A3024 RMK A01 T01180056  RH  066%=      5-min Rain = 0
KMC4 101643Z 15012KT 12/05 A3024 RMK A01 T01180053  RH  064%=      5-min Rain = 0
KMC4 101644Z 16011KT 12/05 A3024 RMK A01 T01170053  RH  065%=      5-min Rain = 0
KMC4 101645Z 14009KT 12/05 A3024 RMK A01 T01160053  RH  065%=      5-min Rain = 0
KMC4 101646Z 13013KT 12/06 A3024 RMK A01 T01170055  RH  066%=      5-min Rain = 0
KMC4 101647Z 14012KT 12/06 A3024 RMK A01 T01180055  RH  065%=      5-min Rain = 0
KMC4 101648Z 14014KT 12/06 A3024 RMK A01 T01180057  RH  066%=      5-min Rain = 0
KMC4 101649Z 14014KT 12/06 A3024 RMK A01 T01190056  RH  066%=      5-min Rain = 0
KMC4 101650Z 14013KT 12/06 A3024 RMK A01 T01190056  RH  065%=      5-min Rain = 0
KMC4 101651Z 14014KT 12/06 A3024 RMK A01 T01190056  RH  066%=      5-min Rain = 0
KMC4 101652Z 15013KT 12/06 A3024 RMK A01 T01190055  RH  065%=      5-min Rain = 0
KMC4 101653Z 15013KT 12/05 A3024 RMK A01 T01190054  RH  065%=      5-min Rain = 0
KMC4 101654Z 14013KT 12/05 A3024 RMK A01 T01170051  RH  064%=      5-min Rain = 0
KMC4 101655Z 15011KT 12/05 A3024 RMK A01 T01170054  RH  065%=      5-min Rain = 0
KMC4 101656Z 16013KT 12/05 A3024 RMK A01 T01170054  RH  065%=      5-min Rain = 0
KMC4 101657Z 15013KT 12/05 A3024 RMK A01 T01170054  RH  065%=      5-min Rain = 0
KMC4 101658Z 15014KT 12/06 A3023 RMK A01 T01180055  RH  065%=      5-min Rain = 0
KMC4 101659Z 15013KT 12/05 A3024 RMK A01 T01180054  RH  065%=      5-min Rain = 0
KMC4 101700Z 15013KT 12/06 A3023 RMK A01 T01180056  RH  066%=      5-min Rain = 0
KMC4 101701Z 15014KT 12/06 A3023 RMK A01 T01190055  RH  065%=      5-min Rain = 0
KMC4 101702Z 15014KT 12/06 A3023 RMK A01 T01190055  RH  065%=      5-min Rain = 0
KMC4 101703Z 15012KT 12/05 A3023 RMK A01 T01180054  RH  065%=      5-min Rain = 0
KMC4 101704Z 15015KT 12/06 A3023 RMK A01 T01180055  RH  065%=      5-min Rain = 0
KMC4 101705Z 15015KT 12/06 A3023 RMK A01 T01200057  RH  065%=      5-min Rain = 0
KMC4 101706Z 14014KT 12/06 A3023 RMK A01 T01200055  RH  064%=      5-min Rain = 0
KMC4 101707Z 14014KT 12/06 A3023 RMK A01 T01200056  RH  065%=      5-min Rain = 0
KMC4 101708Z 15014KT 12/06 A3023 RMK A01 T01200055  RH  064%=      5-min Rain = 0
KMC4 101709Z 14014KT 12/06 A3023 RMK A01 T01210057  RH  065%=      5-min Rain = 0
KMC4 101710Z 14014KT 12/06 A3022 RMK A01 T01220057  RH  064%=      5-min Rain = 0
KMC4 101711Z 15013KT 12/06 A3022 RMK A01 T01220055  RH  064%=      5-min Rain = 0
KMC4 101712Z 13011KT 12/06 A3022 RMK A01 T01230058  RH  064%=      5-min Rain = 0
KMC4 101713Z 15014KT 12/06 A3022 RMK A01 T01240058  RH  064%=      5-min Rain = 0
KMC4 101714Z 16011KT 12/06 A3022 RMK A01 T01240057  RH  064%=      5-min Rain = 0
KMC4 101715Z 17013KT 12/06 A3022 RMK A01 T01230057  RH  064%=      5-min Rain = 0
KMC4 101716Z 15012KT 12/06 A3022 RMK A01 T01220055  RH  063%=      5-min Rain = 0
KMC4 101717Z 15012KT 12/06 A3022 RMK A01 T01220055  RH  064%=      5-min Rain = 0
KMC4 101718Z 14012KT 12/06 A3022 RMK A01 T01220056  RH  064%=      5-min Rain = 0
KMC4 101719Z 15012KT 12/06 A3022 RMK A01 T01220057  RH  064%=      5-min Rain = 0
KMC4 101720Z 15013KT 12/06 A3022 RMK A01 T01220057  RH  064%=      5-min Rain = 0
KMC4 101721Z 15013KT 12/06 A3022 RMK A01 T01220056  RH  064%=      5-min Rain = 0
KMC4 101722Z 15014KT 12/06 A3022 RMK A01 T01220055  RH  063%=      5-min Rain = 0
KMC4 101723Z 16014KT 12/05 A3021 RMK A01 T01220054  RH  063%=      5-min Rain = 0
KMC4 101724Z 15014KT 12/06 A3021 RMK A01 T01220056  RH  064%=      5-min Rain = 0
KMC4 101725Z 14012KT 12/06 A3021 RMK A01 T01220056  RH  064%=      5-min Rain = 0
KMC4 101726Z 13014KT 12/06 A3021 RMK A01 T01230057  RH  064%=      5-min Rain = 0
KMC4 101727Z 14013KT 12/06 A3021 RMK A01 T01240058  RH  064%=      5-min Rain = 0
KMC4 101728Z 14014KT 13/06 A3021 RMK A01 T01250058  RH  064%=      5-min Rain = 0
KMC4 101729Z 14015KT 13/06 A3021 RMK A01 T01250058  RH  064%=      5-min Rain = 0
KMC4 101730Z 14015KT 13/06 A3021 RMK A01 T01250057  RH  063%=      5-min Rain = 0
KMC4 101731Z 15014KT 13/06 A3021 RMK A01 T01250056  RH  063%=      5-min Rain = 0
KMC4 101732Z 15014KT 13/06 A3021 RMK A01 T01250056  RH  063%=      5-min Rain = 0
KMC4 101733Z 14016KT 13/06 A3021 RMK A01 T01250057  RH  063%=      5-min Rain = 0
KMC4 101734Z 14015KT 13/06 A3021 RMK A01 T01250057  RH  063%=      5-min Rain = 0
KMC4 101735Z 14015KT 13/06 A3021 RMK A01 T01250058  RH  064%=      5-min Rain = 0
KMC4 101736Z 15013KT 13/06 A3021 RMK A01 T01260058  RH  063%=      5-min Rain = 0
KMC4 101737Z 15016KT 13/06 A3021 RMK A01 T01260057  RH  063%=      5-min Rain = 0
KMC4 101738Z 14014KT 13/06 A3021 RMK A01 T01250056  RH  063%=      5-min Rain = 0
KMC4 101739Z 13013KT 13/06 A302 RMK A01 T01250057  RH  063%=      5-min Rain = 0
KMC4 101740Z 14016KT 13/06 A302 RMK A01 T01250059  RH  064%=      5-min Rain = 0
KMC4 101741Z 14014KT 13/06 A302 RMK A01 T01260059  RH  063%=      5-min Rain = 0
KMC4 101742Z 14014KT 13/06 A302 RMK A01 T01270056  RH  062%=      5-min Rain = 0
KMC4 101743Z 14014KT 13/06 A302 RMK A01 T01260056  RH  062%=      5-min Rain = 0
KMC4 101744Z 13013KT 13/06 A302 RMK A01 T01260058  RH  063%=      5-min Rain = 0
KMC4 101745Z 13013KT 13/06 A302 RMK A01 T01270061  RH  064%=      5-min Rain = 0
KMC4 101746Z 15012KT 13/06 A302 RMK A01 T01290059  RH  063%=      5-min Rain = 0
KMC4 101747Z 14013KT 13/06 A302 RMK A01 T01290060  RH  063%=      5-min Rain = 0
KMC4 101748Z 15013KT 13/06 A302 RMK A01 T01300061  RH  063%=      5-min Rain = 0
KMC4 101749Z 16013KT 13/06 A302 RMK A01 T01320061  RH  062%=      5-min Rain = 0
KMC4 101750Z 16013KT 13/06 A302 RMK A01 T01320060  RH  062%=      5-min Rain = 0
KMC4 101751Z 15014KT 13/06 A302 RMK A01 T01310059  RH  062%=      5-min Rain = 0
KMC4 101752Z 15012KT 13/06 A302 RMK A01 T01300058  RH  062%=      5-min Rain = 0
KMC4 101753Z 15013KT 13/06 A302 RMK A01 T01300059  RH  062%=      5-min Rain = 0
KMC4 101754Z 14015KT 13/06 A302 RMK A01 T01310061  RH  062%=      5-min Rain = 0
KMC4 101755Z 14015KT 13/06 A3019 RMK A01 T01320059  RH  061%=      5-min Rain = 0
KMC4 101756Z 15013KT 13/06 A3019 RMK A01 T01310059  RH  062%=      5-min Rain = 0
KMC4 101757Z 15014KT 13/06 A3019 RMK A01 T01310060  RH  062%=      5-min Rain = 0
KMC4 101758Z 16013KT 13/06 A3019 RMK A01 T01310059  RH  062%=      5-min Rain = 0
KMC4 101759Z 14014KT 13/06 A3019 RMK A01 T01310060  RH  062%=      5-min Rain = 0
KMC4 101800Z 14016KT 13/06 A3019 RMK A01 T01320060  RH  062%=      5-min Rain = 0
KMC4 101801Z 14013KT 13/06 A3019 RMK A01 T01320059  RH  062%=      5-min Rain = 0
KMC4 101802Z 14011KT 13/06 A3019 RMK A01 T01320062  RH  062%=      5-min Rain = 0
KMC4 101803Z 15012G20KT 13/06 A3019 RMK A01 T01340062  RH  062%=      5-min Rain = 0
KMC4 101804Z 16015G20KT 14/06 A3019 RMK A01 T01350063  RH  062%=      5-min Rain = 0
KMC4 101805Z 16014KT 14/06 A3019 RMK A01 T01350062  RH  061%=      5-min Rain = 0
KMC4 101806Z 16014KT 13/06 A3019 RMK A01 T01330059  RH  061%=      5-min Rain = 0
KMC4 101807Z 15013KT 13/06 A3018 RMK A01 T01310061  RH  062%=      5-min Rain = 0
KMC4 101808Z 17013G18KT 13/06 A3018 RMK A01 T01330062  RH  062%=      5-min Rain = 0
KMC4 101809Z 17013KT 13/06 A3018 RMK A01 T01320060  RH  062%=      5-min Rain = 0
KMC4 101810Z 16014KT 13/06 A3018 RMK A01 T01310062  RH  063%=      5-min Rain = 0
KMC4 101811Z 14013KT 13/06 A3018 RMK A01 T01310061  RH  062%=      5-min Rain = 0
KMC4 101812Z 14015KT 13/06 A3018 RMK A01 T01330064  RH  063%=      5-min Rain = 0
KMC4 101813Z 14013KT 13/06 A3018 RMK A01 T01340064  RH  063%=      5-min Rain = 0
KMC4 101814Z 16013KT 14/06 A3018 RMK A01 T01350063  RH  062%=      5-min Rain = 0
KMC4 101815Z 17013KT 13/06 A3018 RMK A01 T01340061  RH  061%=      5-min Rain = 0
KMC4 101816Z 15014KT 13/06 A3017 RMK A01 T01330064  RH  063%=      5-min Rain = 0
KMC4 101817Z 16013KT 13/06 A3018 RMK A01 T01340063  RH  062%=      5-min Rain = 0
KMC4 101818Z 15011KT 14/07 A3018 RMK A01 T01350065  RH  063%=      5-min Rain = 0
KMC4 101819Z 16014KT 14/07 A3017 RMK A01 T01370065  RH  062%=      5-min Rain = 0
KMC4 101820Z 16013KT 14/06 A3017 RMK A01 T01360064  RH  062%=      5-min Rain = 0
KMC4 101821Z 16012KT 14/07 A3017 RMK A01 T01360066  RH  062%=      5-min Rain = 0
KMC4 101822Z 16013KT 14/07 A3017 RMK A01 T01380066  RH  062%=      5-min Rain = 0
KMC4 101823Z 14015KT 14/07 A3017 RMK A01 T01390066  RH  061%=      5-min Rain = 0
KMC4 101824Z 15015KT 14/06 A3017 RMK A01 T01390064  RH  060%=      5-min Rain = 0
KMC4 101825Z 16012KT 14/06 A3017 RMK A01 T01370063  RH  061%=      5-min Rain = 0
KMC4 101826Z 16014KT 14/06 A3017 RMK A01 T01370064  RH  061%=      5-min Rain = 0
KMC4 101827Z 15013KT 14/06 A3017 RMK A01 T01360063  RH  061%=      5-min Rain = 0
KMC4 101828Z 15015KT 14/06 A3017 RMK A01 T01360064  RH  061%=      5-min Rain = 0
KMC4 101829Z 15015KT 14/06 A3017 RMK A01 T01380064  RH  061%=      5-min Rain = 0
KMC4 101830Z 15015KT 14/06 A3017 RMK A01 T01380064  RH  061%=      5-min Rain = 0
KMC4 101831Z 14015KT 14/06 A3016 RMK A01 T01370064  RH  061%=      5-min Rain = 0
KMC4 101832Z 14015KT 14/07 A3016 RMK A01 T01380065  RH  061%=      5-min Rain = 0
KMC4 101833Z 15015KT 14/07 A3016 RMK A01 T01390066  RH  061%=      5-min Rain = 0
KMC4 101834Z 15015KT 14/07 A3016 RMK A01 T01400066  RH  061%=      5-min Rain = 0
KMC4 101835Z 16015KT 14/07 A3016 RMK A01 T01400066  RH  061%=      5-min Rain = 0
KMC4 101836Z 16014KT 14/07 A3015 RMK A01 T01390065  RH  061%=      5-min Rain = 0
KMC4 101837Z 15013KT 14/07 A3015 RMK A01 T01390066  RH  061%=      5-min Rain = 0
KMC4 101838Z 15015KT 14/07 A3015 RMK A01 T01390065  RH  061%=      5-min Rain = 0
KMC4 101839Z 16016KT 14/06 A3015 RMK A01 T01380064  RH  061%=      5-min Rain = 0
KMC4 101840Z 15013KT 14/07 A3015 RMK A01 T01370065  RH  061%=      5-min Rain = 0
KMC4 101841Z 15012KT 14/07 A3015 RMK A01 T01380066  RH  062%=      5-min Rain = 0
KMC4 101842Z 15012G17KT 14/07 A3015 RMK A01 T01400066  RH  061%=      5-min Rain = 0
KMC4 101843Z 16015KT 14/07 A3015 RMK A01 T01410067  RH  061%=      5-min Rain = 0
KMC4 101844Z 15011KT 14/07 A3015 RMK A01 T01410065  RH  060%=      5-min Rain = 0
KMC4 101845Z 15013KT 14/07 A3015 RMK A01 T01400066  RH  061%=      5-min Rain = 0
KMC4 101846Z 15013KT 14/07 A3015 RMK A01 T01410066  RH  061%=      5-min Rain = 0
KMC4 101847Z 14011KT 14/07 A3015 RMK A01 T01420067  RH  061%=      5-min Rain = 0
KMC4 101848Z 13015KT 14/07 A3014 RMK A01 T01430067  RH  060%=      5-min Rain = 0
KMC4 101849Z 14014KT 15/07 A3014 RMK A01 T01450069  RH  060%=      5-min Rain = 0
KMC4 101850Z 14015KT 15/07 A3014 RMK A01 T01470069  RH  060%=      5-min Rain = 0
KMC4 101851Z 14011KT 15/07 A3014 RMK A01 T01470066  RH  059%=      5-min Rain = 0
KMC4 101852Z 14010KT 14/06 A3014 RMK A01 T01440064  RH  058%=      5-min Rain = 0
KMC4 101853Z 16014KT 14/07 A3014 RMK A01 T01430066  RH  060%=      5-min Rain = 0
KMC4 101854Z 16012KT 14/07 A3014 RMK A01 T01430066  RH  060%=      5-min Rain = 0
KMC4 101855Z 16009KT 14/07 A3014 RMK A01 T01430067  RH  060%=      5-min Rain = 0
KMC4 101856Z 16013KT 14/07 A3014 RMK A01 T01440068  RH  060%=      5-min Rain = 0
KMC4 101857Z 15013KT 15/07 A3014 RMK A01 T01460069  RH  060%=      5-min Rain = 0
KMC4 101858Z 16014KT 15/07 A3013 RMK A01 T01450067  RH  059%=      5-min Rain = 0
KMC4 101859Z 15014KT 14/07 A3013 RMK A01 T01420066  RH  060%=      5-min Rain = 0
KMC4 101900Z 14011KT 14/07 A3013 RMK A01 T01420068  RH  061%=      5-min Rain = 0
KMC4 101901Z 14012KT 15/07 A3013 RMK A01 T01450070  RH  061%=      5-min Rain = 0
KMC4 101902Z 15012KT 15/07 A3013 RMK A01 T01460067  RH  059%=      5-min Rain = 0
KMC4 101903Z 15011KT 15/07 A3013 RMK A01 T01470069  RH  060%=      5-min Rain = 0
KMC4 101904Z 15014KT 15/07 A3013 RMK A01 T01480068  RH  059%=      5-min Rain = 0
KMC4 101905Z 14012KT 15/07 A3013 RMK A01 T01480070  RH  059%=      5-min Rain = 0
KMC4 101906Z 14014KT 15/07 A3013 RMK A01 T01490069  RH  058%=      5-min Rain = 0
KMC4 101907Z 15013KT 15/07 A3013 RMK A01 T01490069  RH  058%=      5-min Rain = 0
KMC4 101908Z 16013KT 15/07 A3012 RMK A01 T01500069  RH  059%=      5-min Rain = 0
KMC4 101909Z 15013KT 15/07 A3012 RMK A01 T01500070  RH  059%=      5-min Rain = 0
KMC4 101910Z 15012KT 15/07 A3012 RMK A01 T01510072  RH  059%=      5-min Rain = 0
KMC4 101911Z 15015KT 15/07 A3012 RMK A01 T01520070  RH  058%=      5-min Rain = 0
KMC4 101912Z 15015KT 15/07 A3012 RMK A01 T01520069  RH  058%=      5-min Rain = 0
KMC4 101913Z 15013KT 15/07 A3012 RMK A01 T01510070  RH  058%=      5-min Rain = 0
KMC4 101914Z 16014KT 15/07 A3012 RMK A01 T01510070  RH  058%=      5-min Rain = 0
KMC4 101915Z 15013KT 15/07 A3012 RMK A01 T01510072  RH  059%=      5-min Rain = 0
KMC4 101916Z 15013KT 15/07 A3012 RMK A01 T01540073  RH  058%=      5-min Rain = 0
KMC4 101917Z 16016KT 15/07 A3011 RMK A01 T01540071  RH  058%=      5-min Rain = 0
KMC4 101918Z 16014KT 15/07 A3011 RMK A01 T01520069  RH  058%=      5-min Rain = 0
KMC4 101919Z 15015KT 15/07 A3011 RMK A01 T01510071  RH  059%=      5-min Rain = 0
KMC4 101920Z 14017KT 15/07 A3012 RMK A01 T01520069  RH  058%=      5-min Rain = 0
KMC4 101921Z 15014KT 15/07 A3012 RMK A01 T01510068  RH  057%=      5-min Rain = 0
KMC4 101922Z 16012G18KT 15/07 A3012 RMK A01 T01510071  RH  059%=      5-min Rain = 0
KMC4 101923Z 16016KT 15/07 A3012 RMK A01 T01540071  RH  058%=      5-min Rain = 0
KMC4 101924Z 15015KT 15/07 A3012 RMK A01 T01520069  RH  058%=      5-min Rain = 0
KMC4 101925Z 14015KT 15/07 A3012 RMK A01 T01510069  RH  058%=      5-min Rain = 0
KMC4 101926Z 15014KT 15/07 A3012 RMK A01 T01510069  RH  058%=      5-min Rain = 0
KMC4 101927Z 15013KT 15/07 A3012 RMK A01 T01500066  RH  057%=      5-min Rain = 0
KMC4 101928Z 14014KT 15/07 A3012 RMK A01 T01490068  RH  059%=      5-min Rain = 0
KMC4 101929Z 14015KT 15/07 A3012 RMK A01 T01510070  RH  059%=      5-min Rain = 0
KMC4 101930Z 15014KT 15/07 A3011 RMK A01 T01510068  RH  057%=      5-min Rain = 0
KMC4 101931Z 16012KT 15/07 A3011 RMK A01 T01500068  RH  058%=      5-min Rain = 0
KMC4 101932Z 14014KT 15/07 A3011 RMK A01 T01510070  RH  058%=      5-min Rain = 0
KMC4 101933Z 15014KT 15/07 A3011 RMK A01 T01520070  RH  058%=      5-min Rain = 0
KMC4 101934Z 15013KT 15/07 A3011 RMK A01 T01520069  RH  057%=      5-min Rain = 0
KMC4 101935Z 15013KT 15/07 A3011 RMK A01 T01520068  RH  057%=      5-min Rain = 0
KMC4 101936Z 16010KT 15/07 A3011 RMK A01 T01510069  RH  058%=      5-min Rain = 0
KMC4 101937Z 15012KT 15/07 A3011 RMK A01 T01510068  RH  057%=      5-min Rain = 0
KMC4 101938Z 13013KT 15/07 A3011 RMK A01 T01510067  RH  057%=      5-min Rain = 0
KMC4 101939Z 13012KT 15/07 A3011 RMK A01 T01500069  RH  058%=      5-min Rain = 0
KMC4 101940Z 14015KT 15/07 A3011 RMK A01 T01520071  RH  058%=      5-min Rain = 0
KMC4 101941Z 14013KT 15/07 A3011 RMK A01 T01540070  RH  057%=      5-min Rain = 0
KMC4 101942Z 16013KT 15/07 A3011 RMK A01 T01530069  RH  057%=      5-min Rain = 0
KMC4 101943Z 14011KT 15/07 A3011 RMK A01 T01530068  RH  057%=      5-min Rain = 0
KMC4 101944Z 14012G17KT 15/07 A3011 RMK A01 T01520069  RH  058%=      5-min Rain = 0
KMC4 101945Z 14015KT 15/07 A3011 RMK A01 T01520069  RH  057%=      5-min Rain = 0
KMC4 101946Z 16014KT 15/07 A3011 RMK A01 T01530068  RH  057%=      5-min Rain = 0
KMC4 101947Z 14011KT 15/07 A301 RMK A01 T01520070  RH  058%=      5-min Rain = 0
KMC4 101948Z 15013KT 16/08 A301 RMK A01 T01560075  RH  059%=      5-min Rain = 0
KMC4 101949Z 14013KT 16/07 A301 RMK A01 T01570070  RH  056%=      5-min Rain = 0
KMC4 101950Z 13012KT 16/07 A301 RMK A01 T01550070  RH  057%=      5-min Rain = 0
KMC4 101951Z 15015KT 16/07 A301 RMK A01 T01550071  RH  057%=      5-min Rain = 0
KMC4 101952Z 15013KT 16/07 A301 RMK A01 T01550069  RH  056%=      5-min Rain = 0
KMC4 101953Z 13013KT 15/07 A301 RMK A01 T01540071  RH  057%=      5-min Rain = 0
KMC4 101954Z 14014KT 16/07 A301 RMK A01 T01560070  RH  057%=      5-min Rain = 0
KMC4 101955Z 15013KT 16/07 A301 RMK A01 T01560070  RH  057%=      5-min Rain = 0
KMC4 101956Z 15013KT 16/07 A301 RMK A01 T01560070  RH  057%=      5-min Rain = 0
KMC4 101957Z 15015KT 16/07 A301 RMK A01 T01550070  RH  057%=      5-min Rain = 0
KMC4 101958Z 14012KT 15/07 A301 RMK A01 T01530069  RH  057%=      5-min Rain = 0
KMC4 101959Z 15012KT 15/07 A301 RMK A01 T01530070  RH  058%=      5-min Rain = 0
KMC4 102000Z 15011KT 15/07 A301 RMK A01 T01530070  RH  058%=      5-min Rain = 0
KMC4 102001Z 15015KT 15/07 A301 RMK A01 T01540072  RH  058%=      5-min Rain = 0
KMC4 102002Z 14014KT 15/07 A301 RMK A01 T01540070  RH  057%=      5-min Rain = 0
KMC4 102003Z 14014KT 15/07 A301 RMK A01 T01540070  RH  057%=      5-min Rain = 0
KMC4 102004Z 14015KT 15/07 A301 RMK A01 T01530069  RH  057%=      5-min Rain = 0
KMC4 102005Z 15016KT 15/07 A301 RMK A01 T01540071  RH  058%=      5-min Rain = 0
KMC4 102006Z 17012KT 16/07 A301 RMK A01 T01560071  RH  057%=      5-min Rain = 0
KMC4 102007Z 16013KT 16/07 A301 RMK A01 T01550071  RH  057%=      5-min Rain = 0
KMC4 102008Z 15015KT 16/07 A301 RMK A01 T01570072  RH  057%=      5-min Rain = 0
KMC4 102009Z 15012KT 16/07 A301 RMK A01 T01580070  RH  056%=      5-min Rain = 0
KMC4 102010Z 15012KT 16/07 A301 RMK A01 T01570071  RH  057%=      5-min Rain = 0
KMC4 102011Z 14013KT 16/07 A301 RMK A01 T01580072  RH  057%=      5-min Rain = 0
KMC4 102012Z 15012KT 16/07 A301 RMK A01 T01590070  RH  055%=      5-min Rain = 0
KMC4 102013Z 14013KT 16/07 A3009 RMK A01 T01590071  RH  056%=      5-min Rain = 0
KMC4 102014Z 13013KT 16/07 A3009 RMK A01 T01580070  RH  056%=      5-min Rain = 0
KMC4 102015Z 13012KT 16/07 A3009 RMK A01 T01580071  RH  056%=      5-min Rain = 0
KMC4 102016Z 14011KT 16/07 A3009 RMK A01 T01590073  RH  057%=      5-min Rain = 0
KMC4 102017Z 14012KT 16/08 A3009 RMK A01 T01630076  RH  056%=      5-min Rain = 0
KMC4 102018Z 15015KT 16/07 A3009 RMK A01 T01640073  RH  055%=      5-min Rain = 0
KMC4 102019Z 13014KT 16/07 A3009 RMK A01 T01620071  RH  055%=      5-min Rain = 0
KMC4 102020Z 14013KT 16/07 A3009 RMK A01 T01620074  RH  056%=      5-min Rain = 0
KMC4 102021Z 15011KT 16/07 A3009 RMK A01 T01630073  RH  055%=      5-min Rain = 0
KMC4 102022Z 14013G18KT 16/07 A3009 RMK A01 T01640073  RH  055%=      5-min Rain = 0
KMC4 102023Z 13014KT 16/07 A3009 RMK A01 T01640072  RH  055%=      5-min Rain = 0
KMC4 102024Z 14011KT 16/07 A3009 RMK A01 T01630071  RH  054%=      5-min Rain = 0
KMC4 102025Z 13014KT 16/07 A3009 RMK A01 T01620072  RH  055%=      5-min Rain = 0
KMC4 102026Z 14012KT 16/07 A3009 RMK A01 T01610071  RH  055%=      5-min Rain = 0
KMC4 102027Z 13012G17KT 16/07 A3009 RMK A01 T01620073  RH  056%=      5-min Rain = 0
KMC4 102028Z 13013KT 16/07 A3009 RMK A01 T01630073  RH  055%=      5-min Rain = 0
KMC4 102029Z 13014KT 16/07 A3008 RMK A01 T01630073  RH  055%=      5-min Rain = 0
KMC4 102030Z 13012KT 16/07 A3008 RMK A01 T01620072  RH  055%=      5-min Rain = 0
KMC4 102031Z 13011KT 16/07 A3008 RMK A01 T01610072  RH  056%=      5-min Rain = 0
KMC4 102032Z 14010G15KT 16/07 A3008 RMK A01 T01620074  RH  056%=      5-min Rain = 0
KMC4 102033Z 14013KT 16/08 A3008 RMK A01 T01640075  RH  056%=      5-min Rain = 0
KMC4 102034Z 15014KT 16/07 A3008 RMK A01 T01640072  RH  055%=      5-min Rain = 0
KMC4 102035Z 14011KT 16/07 A3008 RMK A01 T01630073  RH  055%=      5-min Rain = 0
KMC4 102036Z 13012KT 16/07 A3008 RMK A01 T01630074  RH  055%=      5-min Rain = 0
KMC4 102037Z 13012KT 16/07 A3008 RMK A01 T01630072  RH  055%=      5-min Rain = 0
KMC4 102038Z 14011KT 16/07 A3008 RMK A01 T01620072  RH  055%=      5-min Rain = 0
KMC4 102039Z 14012KT 16/07 A3008 RMK A01 T01610073  RH  056%=      5-min Rain = 0
KMC4 102040Z 16010KT 16/07 A3008 RMK A01 T01610074  RH  056%=      5-min Rain = 0
KMC4 102041Z 17011KT 16/07 A3008 RMK A01 T01610072  RH  056%=      5-min Rain = 0
KMC4 102042Z 16014KT 16/07 A3008 RMK A01 T01590072  RH  056%=      5-min Rain = 0
KMC4 102043Z 16012KT 16/07 A3008 RMK A01 T01580071  RH  056%=      5-min Rain = 0
KMC4 102044Z 16012KT 16/07 A3008 RMK A01 T01560072  RH  057%=      5-min Rain = 0
KMC4 102045Z 14011KT 16/07 A3008 RMK A01 T01580072  RH  057%=      5-min Rain = 0
KMC4 102046Z 15011KT 16/07 A3008 RMK A01 T01600073  RH  056%=      5-min Rain = 0
KMC4 102047Z 14011KT 16/07 A3008 RMK A01 T01610073  RH  056%=      5-min Rain = 0
KMC4 102048Z 14011KT 16/07 A3008 RMK A01 T01620074  RH  056%=      5-min Rain = 0
KMC4 102049Z 15013KT 16/07 A3008 RMK A01 T01610073  RH  056%=      5-min Rain = 0
KMC4 102050Z 15013KT 16/07 A3008 RMK A01 T01610072  RH  056%=      5-min Rain = 0
KMC4 102051Z 14012KT 16/07 A3008 RMK A01 T01600074  RH  057%=      5-min Rain = 0
KMC4 102052Z 14013KT 16/07 A3008 RMK A01 T01610074  RH  056%=      5-min Rain = 0
KMC4 102053Z 14013KT 16/07 A3008 RMK A01 T01600073  RH  056%=      5-min Rain = 0
KMC4 102054Z 14012KT 16/08 A3008 RMK A01 T01590075  RH  057%=      5-min Rain = 0
KMC4 102055Z 14012KT 16/08 A3008 RMK A01 T01590075  RH  057%=      5-min Rain = 0
KMC4 102056Z 15012KT 16/07 A3008 RMK A01 T01590074  RH  057%=      5-min Rain = 0
KMC4 102057Z 14011KT 16/07 A3008 RMK A01 T01600074  RH  057%=      5-min Rain = 0
KMC4 102058Z 13014KT 16/08 A3008 RMK A01 T01620075  RH  056%=      5-min Rain = 0
KMC4 102059Z 14013KT 16/07 A3008 RMK A01 T01630073  RH  055%=      5-min Rain = 0
KMC4 102100Z 15013KT 16/07 A3008 RMK A01 T01630074  RH  056%=      5-min Rain = 0
KMC4 102101Z 14012KT 16/07 A3008 RMK A01 T01640074  RH  055%=      5-min Rain = 0
KMC4 102102Z 14011KT 17/07 A3008 RMK A01 T01650074  RH  055%=      5-min Rain = 0
KMC4 102103Z 15011KT 17/08 A3008 RMK A01 T01670075  RH  055%=      5-min Rain = 0
KMC4 102104Z 15012KT 17/07 A3008 RMK A01 T01670073  RH  054%=      5-min Rain = 0
KMC4 102105Z 14011KT 17/07 A3008 RMK A01 T01660073  RH  054%=      5-min Rain = 0
KMC4 102106Z 16013KT 17/07 A3008 RMK A01 T01660074  RH  055%=      5-min Rain = 0
KMC4 102107Z 16013KT 17/07 A3008 RMK A01 T01660074  RH  054%=      5-min Rain = 0
KMC4 102108Z 15012KT 17/07 A3008 RMK A01 T01660074  RH  055%=      5-min Rain = 0
KMC4 102109Z 15012KT 17/08 A3008 RMK A01 T01670076  RH  055%=      5-min Rain = 0
KMC4 102110Z 14011KT 17/07 A3008 RMK A01 T01680074  RH  054%=      5-min Rain = 0
KMC4 102111Z 15014KT 17/08 A3008 RMK A01 T01680075  RH  054%=      5-min Rain = 0
KMC4 102112Z 16010KT 17/08 A3008 RMK A01 T01680077  RH  055%=      5-min Rain = 0
KMC4 102113Z 13012KT 17/08 A3008 RMK A01 T01680076  RH  054%=      5-min Rain = 0
KMC4 102114Z 14011KT 17/08 A3008 RMK A01 T01680076  RH  055%=      5-min Rain = 0
KMC4 102115Z 15013KT 17/08 A3008 RMK A01 T01690077  RH  055%=      5-min Rain = 0
KMC4 102116Z 16014KT 17/08 A3008 RMK A01 T01690076  RH  054%=      5-min Rain = 0
KMC4 102117Z 17012KT 17/08 A3008 RMK A01 T01680078  RH  055%=      5-min Rain = 0
KMC4 102118Z 15013KT 17/08 A3008 RMK A01 T01680077  RH  055%=      5-min Rain = 0
KMC4 102119Z 14013KT 17/08 A3008 RMK A01 T01680077  RH  055%=      5-min Rain = 0
KMC4 102120Z 15014KT 17/08 A3008 RMK A01 T01690078  RH  055%=      5-min Rain = 0
KMC4 102121Z 15011KT 17/08 A3008 RMK A01 T01690077  RH  055%=      5-min Rain = 0
KMC4 102122Z 14013KT 17/08 A3007 RMK A01 T01700077  RH  054%=      5-min Rain = 0
KMC4 102123Z 14011KT 17/08 A3008 RMK A01 T01700077  RH  054%=      5-min Rain = 0
KMC4 102124Z 14014KT 17/08 A3008 RMK A01 T01700078  RH  055%=      5-min Rain = 0
KMC4 102125Z 14014KT 17/08 A3007 RMK A01 T01700076  RH  054%=      5-min Rain = 0
KMC4 102126Z 14013KT 17/08 A3007 RMK A01 T01680076  RH  055%=      5-min Rain = 0
KMC4 102127Z 15013KT 17/08 A3007 RMK A01 T01670076  RH  055%=      5-min Rain = 0
KMC4 102128Z 15012KT 17/08 A3008 RMK A01 T01660076  RH  055%=      5-min Rain = 0
KMC4 102129Z 15013KT 17/08 A3008 RMK A01 T01660077  RH  056%=      5-min Rain = 0
KMC4 102130Z 15012KT 17/08 A3008 RMK A01 T01660077  RH  056%=      5-min Rain = 0
KMC4 102131Z 15013KT 17/08 A3008 RMK A01 T01660077  RH  055%=      5-min Rain = 0
KMC4 102132Z 15013KT 16/08 A3007 RMK A01 T01640076  RH  056%=      5-min Rain = 0
KMC4 102133Z 15013KT 16/08 A3008 RMK A01 T01640077  RH  056%=      5-min Rain = 0
KMC4 102134Z 14012KT 16/08 A3007 RMK A01 T01630076  RH  056%=      5-min Rain = 0
KMC4 102135Z 15011KT 16/08 A3007 RMK A01 T01640078  RH  057%=      5-min Rain = 0
KMC4 102136Z 15012KT 17/08 A3007 RMK A01 T01670078  RH  056%=      5-min Rain = 0
KMC4 102137Z 15012KT 17/08 A3007 RMK A01 T01680076  RH  055%=      5-min Rain = 0
KMC4 102138Z 13014KT 17/08 A3007 RMK A01 T01670077  RH  055%=      5-min Rain = 0
KMC4 102139Z 13012KT 17/08 A3007 RMK A01 T01680077  RH  055%=      5-min Rain = 0
KMC4 102140Z 14014KT 17/08 A3007 RMK A01 T01680077  RH  055%=      5-min Rain = 0
KMC4 102141Z 13014KT 17/08 A3007 RMK A01 T01690077  RH  054%=      5-min Rain = 0
KMC4 102142Z 14013KT 17/08 A3007 RMK A01 T01690076  RH  054%=      5-min Rain = 0
KMC4 102143Z 14013KT 17/07 A3007 RMK A01 T01680074  RH  054%=      5-min Rain = 0
KMC4 102144Z 14013KT 17/08 A3007 RMK A01 T01670077  RH  055%=      5-min Rain = 0
KMC4 102145Z 14014KT 17/08 A3007 RMK A01 T01680076  RH  055%=      5-min Rain = 0
KMC4 102146Z 15013KT 17/08 A3007 RMK A01 T01680076  RH  055%=      5-min Rain = 0
KMC4 102147Z 14012KT 17/08 A3007 RMK A01 T01660076  RH  055%=      5-min Rain = 0
KMC4 102148Z 13013KT 17/08 A3007 RMK A01 T01660076  RH  055%=      5-min Rain = 0
KMC4 102149Z 14014KT 17/08 A3007 RMK A01 T01650076  RH  056%=      5-min Rain = 0
KMC4 102150Z 14014KT 16/08 A3007 RMK A01 T01640075  RH  056%=      5-min Rain = 0
KMC4 102151Z 14013KT 16/07 A3007 RMK A01 T01630074  RH  056%=      5-min Rain = 0
KMC4 102152Z 14013KT 16/07 A3007 RMK A01 T01620074  RH  056%=      5-min Rain = 0
KMC4 102153Z 14011KT 16/08 A3007 RMK A01 T01620075  RH  056%=      5-min Rain = 0
KMC4 102154Z 15012KT 16/08 A3007 RMK A01 T01620076  RH  057%=      5-min Rain = 0
KMC4 102155Z 14013KT 16/07 A3007 RMK A01 T01620074  RH  056%=      5-min Rain = 0
KMC4 102156Z 13013KT 16/07 A3007 RMK A01 T01610074  RH  056%=      5-min Rain = 0
KMC4 102157Z 13010KT 16/08 A3007 RMK A01 T01610076  RH  057%=      5-min Rain = 0
KMC4 102158Z 12009KT 16/08 A3007 RMK A01 T01600075  RH  057%=      5-min Rain = 0
KMC4 102159Z 13010KT 16/08 A3007 RMK A01 T01610076  RH  057%=      5-min Rain = 0
KMC4 102200Z 12011KT 16/08 A3007 RMK A01 T01620075  RH  056%=      5-min Rain = 0
KMC4 102201Z 12013KT 16/08 A3007 RMK A01 T01640076  RH  056%=      5-min Rain = 0
KMC4 102202Z 13011KT 16/08 A3007 RMK A01 T01640076  RH  056%=      5-min Rain = 0
KMC4 102203Z 12011KT 17/08 A3007 RMK A01 T01650078  RH  056%=      5-min Rain = 0
KMC4 102204Z 13012KT 17/08 A3007 RMK A01 T01670079  RH  056%=      5-min Rain = 0
KMC4 102205Z 13011KT 17/08 A3007 RMK A01 T01670078  RH  056%=      5-min Rain = 0
KMC4 102206Z 13012KT 17/08 A3007 RMK A01 T01670078  RH  056%=      5-min Rain = 0
KMC4 102207Z 12012KT 17/08 A3007 RMK A01 T01680077  RH  055%=      5-min Rain = 0
KMC4 102208Z 13012KT 17/08 A3007 RMK A01 T01670077  RH  055%=      5-min Rain = 0
KMC4 102209Z 14014KT 17/08 A3007 RMK A01 T01670078  RH  055%=      5-min Rain = 0
KMC4 102210Z 13012KT 17/08 A3007 RMK A01 T01680078  RH  055%=      5-min Rain = 0
KMC4 102211Z 14010KT 17/08 A3007 RMK A01 T01680078  RH  055%=      5-min Rain = 0
KMC4 102212Z 13012KT 17/08 A3007 RMK A01 T01690080  RH  056%=      5-min Rain = 0
KMC4 102213Z 13011KT 17/08 A3007 RMK A01 T01700079  RH  055%=      5-min Rain = 0
KMC4 102214Z 14012KT 17/08 A3007 RMK A01 T01690079  RH  055%=      5-min Rain = 0
KMC4 102215Z 14011KT 17/08 A3007 RMK A01 T01670077  RH  055%=      5-min Rain = 0
KMC4 102216Z 12012KT 17/08 A3007 RMK A01 T01660078  RH  056%=      5-min Rain = 0
KMC4 102217Z 13012KT 17/08 A3007 RMK A01 T01650077  RH  056%=      5-min Rain = 0
KMC4 102218Z 12011KT 16/08 A3007 RMK A01 T01640078  RH  057%=      5-min Rain = 0
KMC4 102219Z 12012KT 16/08 A3007 RMK A01 T01640077  RH  056%=      5-min Rain = 0
KMC4 102220Z 12012KT 16/08 A3007 RMK A01 T01630076  RH  056%=      5-min Rain = 0
KMC4 102221Z 13013KT 16/08 A3007 RMK A01 T01610076  RH  057%=      5-min Rain = 0
KMC4 102222Z 13013KT 16/08 A3007 RMK A01 T01600076  RH  057%=      5-min Rain = 0
KMC4 102223Z 14013KT 16/08 A3006 RMK A01 T01600077  RH  058%=      5-min Rain = 0
KMC4 102224Z 13012KT 16/08 A3006 RMK A01 T01600078  RH  058%=      5-min Rain = 0
KMC4 102225Z 13012KT 16/08 A3006 RMK A01 T01600076  RH  058%=      5-min Rain = 0
KMC4 102226Z 13013KT 16/08 A3006 RMK A01 T01600077  RH  058%=      5-min Rain = 0
KMC4 102227Z 12013KT 16/08 A3006 RMK A01 T01600077  RH  058%=      5-min Rain = 0
KMC4 102228Z 13013KT 16/08 A3006 RMK A01 T01600078  RH  058%=      5-min Rain = 0
KMC4 102229Z 14011KT 16/08 A3006 RMK A01 T01590078  RH  059%=      5-min Rain = 0
KMC4 102230Z 14012KT 16/08 A3006 RMK A01 T01590078  RH  059%=      5-min Rain = 0
KMC4 102231Z 13012KT 16/08 A3006 RMK A01 T01590079  RH  059%=      5-min Rain = 0
KMC4 102232Z 13010KT 16/08 A3006 RMK A01 T01590078  RH  059%=      5-min Rain = 0
KMC4 102233Z 12009KT 16/08 A3006 RMK A01 T01600079  RH  059%=      5-min Rain = 0
KMC4 102234Z 12009KT 16/08 A3006 RMK A01 T01600079  RH  059%=      5-min Rain = 0
KMC4 102235Z 12010KT 16/08 A3006 RMK A01 T01590078  RH  058%=      5-min Rain = 0
KMC4 102236Z 11009KT 16/08 A3007 RMK A01 T01590077  RH  058%=      5-min Rain = 0
KMC4 102237Z 12011KT 16/08 A3007 RMK A01 T01580077  RH  059%=      5-min Rain = 0
KMC4 102238Z 12011KT 16/08 A3006 RMK A01 T01580078  RH  059%=      5-min Rain = 0
KMC4 102239Z 14012KT 16/08 A3006 RMK A01 T01580078  RH  059%=      5-min Rain = 0
KMC4 102240Z 13009KT 16/08 A3006 RMK A01 T01580078  RH  059%=      5-min Rain = 0
KMC4 102241Z 13009KT 16/08 A3006 RMK A01 T01580079  RH  059%=      5-min Rain = 0
KMC4 102242Z 13009KT 16/08 A3006 RMK A01 T01580079  RH  060%=      5-min Rain = 0
KMC4 102243Z 13012KT 16/08 A3006 RMK A01 T01580078  RH  059%=      5-min Rain = 0
KMC4 102244Z 13012KT 16/08 A3006 RMK A01 T01580078  RH  059%=      5-min Rain = 0
KMC4 102245Z 13014KT 16/08 A3006 RMK A01 T01570078  RH  059%=      5-min Rain = 0
KMC4 102246Z 13013KT 16/08 A3006 RMK A01 T01570077  RH  059%=      5-min Rain = 0
KMC4 102247Z 13014KT 16/08 A3006 RMK A01 T01560078  RH  060%=      5-min Rain = 0
KMC4 102248Z 13011KT 16/08 A3006 RMK A01 T01560077  RH  059%=      5-min Rain = 0
KMC4 102249Z 13012KT 16/08 A3007 RMK A01 T01560078  RH  060%=      5-min Rain = 0
KMC4 102250Z 13012KT 16/08 A3007 RMK A01 T01560078  RH  060%=      5-min Rain = 0
KMC4 102251Z 13013KT 16/08 A3007 RMK A01 T01550077  RH  060%=      5-min Rain = 0
KMC4 102252Z 14012KT 16/08 A3007 RMK A01 T01550077  RH  060%=      5-min Rain = 0
KMC4 102253Z 13010KT 16/08 A3007 RMK A01 T01550078  RH  060%=      5-min Rain = 0
KMC4 102254Z 13010KT 16/08 A3006 RMK A01 T01550079  RH  061%=      5-min Rain = 0
KMC4 102255Z 13014KT 15/08 A3006 RMK A01 T01540079  RH  061%=      5-min Rain = 0
KMC4 102256Z 13012KT 15/08 A3006 RMK A01 T01540077  RH  060%=      5-min Rain = 0
KMC4 102257Z 12013KT 15/08 A3006 RMK A01 T01540077  RH  060%=      5-min Rain = 0
KMC4 102258Z 13012KT 15/08 A3006 RMK A01 T01530077  RH  061%=      5-min Rain = 0
KMC4 102259Z 13013KT 15/08 A3006 RMK A01 T01520077  RH  061%=      5-min Rain = 0
KMC4 102300Z 12010KT 15/08 A3006 RMK A01 T01520077  RH  061%=      5-min Rain = 0
KMC4 102301Z 12009KT 15/08 A3006 RMK A01 T01520078  RH  061%=      5-min Rain = 0
KMC4 102302Z 12011KT 15/08 A3006 RMK A01 T01520077  RH  061%=      5-min Rain = 0
KMC4 102303Z 12012KT 15/08 A3006 RMK A01 T01510077  RH  061%=      5-min Rain = 0
KMC4 102304Z 12011KT 15/08 A3006 RMK A01 T01510076  RH  061%=      5-min Rain = 0
KMC4 102305Z 12009KT 15/08 A3006 RMK A01 T01500077  RH  061%=      5-min Rain = 0
KMC4 102306Z 12009KT 15/08 A3006 RMK A01 T01500077  RH  062%=      5-min Rain = 0
KMC4 102307Z 12010KT 15/08 A3006 RMK A01 T01500077  RH  062%=      5-min Rain = 0
KMC4 102308Z 12011KT 15/08 A3006 RMK A01 T01500076  RH  061%=      5-min Rain = 0
KMC4 102309Z 12009KT 15/08 A3006 RMK A01 T01500077  RH  061%=      5-min Rain = 0
KMC4 102310Z 13009KT 15/08 A3006 RMK A01 T01500077  RH  061%=      5-min Rain = 0
KMC4 102311Z 12011KT 15/08 A3006 RMK A01 T01500077  RH  061%=      5-min Rain = 0
KMC4 102312Z 12009KT 15/08 A3006 RMK A01 T01510077  RH  061%=      5-min Rain = 0
KMC4 102313Z 13012KT 15/08 A3006 RMK A01 T01510076  RH  061%=      5-min Rain = 0
KMC4 102314Z 13013KT 15/08 A3006 RMK A01 T01510075  RH  061%=      5-min Rain = 0
KMC4 102315Z 14014KT 15/08 A3006 RMK A01 T01510076  RH  061%=      5-min Rain = 0
KMC4 102316Z 13014KT 15/08 A3006 RMK A01 T01500075  RH  061%=      5-min Rain = 0
KMC4 102317Z 13014KT 15/07 A3006 RMK A01 T01500074  RH  061%=      5-min Rain = 0
KMC4 102318Z 13016KT 15/07 A3006 RMK A01 T01490074  RH  061%=      5-min Rain = 0
KMC4 102319Z 13014KT 15/07 A3006 RMK A01 T01490074  RH  061%=      5-min Rain = 0
KMC4 102320Z 13015KT 15/07 A3006 RMK A01 T01480074  RH  061%=      5-min Rain = 0
KMC4 102321Z 13015KT 15/07 A3007 RMK A01 T01480073  RH  061%=      5-min Rain = 0
KMC4 102322Z 13013KT 15/07 A3007 RMK A01 T01470074  RH  061%=      5-min Rain = 0
KMC4 102323Z 13013KT 15/07 A3007 RMK A01 T01470074  RH  062%=      5-min Rain = 0
KMC4 102324Z 13011KT 15/07 A3007 RMK A01 T01460074  RH  062%=      5-min Rain = 0
KMC4 102325Z 13012KT 15/07 A3006 RMK A01 T01460074  RH  062%=      5-min Rain = 0
KMC4 102326Z 13014KT 15/07 A3006 RMK A01 T01450073  RH  062%=      5-min Rain = 0
KMC4 102327Z 14014KT 15/07 A3006 RMK A01 T01450072  RH  062%=      5-min Rain = 0
KMC4 102328Z 14014KT 14/07 A3006 RMK A01 T01440072  RH  062%=      5-min Rain = 0
KMC4 102329Z 14014KT 14/07 A3006 RMK A01 T01430071  RH  062%=      5-min Rain = 0
KMC4 102330Z 14012KT 14/07 A3006 RMK A01 T01430071  RH  062%=      5-min Rain = 0
KMC4 102331Z 14011KT 14/07 A3006 RMK A01 T01430071  RH  062%=      5-min Rain = 0
KMC4 102332Z 13011G17KT 14/07 A3006 RMK A01 T01430072  RH  062%=      5-min Rain = 0
KMC4 102333Z 14013KT 14/07 A3006 RMK A01 T01420070  RH  062%=      5-min Rain = 0
KMC4 102334Z 13014KT 14/07 A3006 RMK A01 T01420069  RH  061%=      5-min Rain = 0
KMC4 102335Z 14012KT 14/07 A3006 RMK A01 T01420069  RH  061%=      5-min Rain = 0
KMC4 102336Z 13011KT 14/07 A3006 RMK A01 T01420069  RH  062%=      5-min Rain = 0
KMC4 102337Z 13013KT 14/07 A3005 RMK A01 T01420069  RH  062%=      5-min Rain = 0
KMC4 102338Z 13014KT 14/07 A3005 RMK A01 T01420068  RH  061%=      5-min Rain = 0
KMC4 102339Z 12013KT 14/07 A3006 RMK A01 T01420069  RH  061%=      5-min Rain = 0
KMC4 102340Z 13014KT 14/07 A3006 RMK A01 T01420069  RH  062%=      5-min Rain = 0
KMC4 102341Z 13013KT 14/07 A3006 RMK A01 T01420068  RH  061%=      5-min Rain = 0
KMC4 102342Z 13011KT 14/07 A3006 RMK A01 T01420069  RH  061%=      5-min Rain = 0
KMC4 102343Z 13011KT 14/07 A3006 RMK A01 T01420069  RH  062%=      5-min Rain = 0
KMC4 102344Z 12009KT 14/07 A3006 RMK A01 T01410070  RH  062%=      5-min Rain = 0
KMC4 102345Z 12011KT 14/07 A3006 RMK A01 T01410070  RH  062%=      5-min Rain = 0
KMC4 102346Z 12011KT 14/07 A3006 RMK A01 T01410069  RH  062%=      5-min Rain = 0
KMC4 102347Z 12009KT 14/07 A3006 RMK A01 T01410069  RH  062%=      5-min Rain = 0
KMC4 102348Z 12010KT 14/07 A3006 RMK A01 T01410070  RH  062%=      5-min Rain = 0
KMC4 102349Z 10006KT 14/07 A3006 RMK A01 T01400070  RH  062%=      5-min Rain = 0
KMC4 102350Z 11008KT 14/07 A3006 RMK A01 T01400070  RH  062%=      5-min Rain = 0
KMC4 102351Z 11009KT 14/07 A3006 RMK A01 T01400069  RH  062%=      5-min Rain = 0
KMC4 102352Z 12007KT 14/07 A3006 RMK A01 T01400070  RH  063%=      5-min Rain = 0
KMC4 102353Z 12007KT 14/07 A3006 RMK A01 T01400071  RH  063%=      5-min Rain = 0
KMC4 102354Z 12007KT 14/07 A3006 RMK A01 T01390071  RH  063%=      5-min Rain = 0
KMC4 102355Z 12008KT 14/07 A3006 RMK A01 T01390071  RH  063%=      5-min Rain = 0
KMC4 102356Z 12008KT 14/07 A3006 RMK A01 T01390070  RH  063%=      5-min Rain = 0
KMC4 102357Z 12007KT 14/07 A3006 RMK A01 T01390071  RH  063%=      5-min Rain = 0
KMC4 102358Z 12007KT 14/07 A3006 RMK A01 T01380071  RH  064%=      5-min Rain = 0
KMC4 102359Z 13010KT 14/07 A3006 RMK A01 T01380071  RH  064%=      5-min Rain = 0
KMC4 110000Z 13008KT 14/07 A3006 RMK A01 T01380070  RH  064%=      5-min Rain = 0
KMC4 110001Z 13007KT 14/07 A3006 RMK A01 T01380071  RH  064%=      5-min Rain = 0
KMC4 110002Z 13008KT 14/07 A3006 RMK A01 T01380072  RH  065%=      5-min Rain = 0
KMC4 110003Z 13011KT 14/07 A3006 RMK A01 T01370071  RH  064%=      5-min Rain = 0
KMC4 110004Z 13009KT 14/07 A3006 RMK A01 T01370071  RH  064%=      5-min Rain = 0
KMC4 110005Z 13008KT 14/07 A3006 RMK A01 T01370071  RH  064%=      5-min Rain = 0
KMC4 110006Z 13007KT 14/07 A3006 RMK A01 T01370071  RH  064%=      5-min Rain = 0
KMC4 110007Z 13009KT 14/07 A3006 RMK A01 T01370071  RH  064%=      5-min Rain = 0
KMC4 110008Z 12009KT 14/07 A3006 RMK A01 T01370071  RH  064%=      5-min Rain = 0
KMC4 110009Z 12007KT 14/07 A3006 RMK A01 T01370071  RH  064%=      5-min Rain = 0
KMC4 110010Z 11008KT 14/07 A3006 RMK A01 T01370071  RH  064%=      5-min Rain = 0
KMC4 110011Z 11008KT 14/07 A3006 RMK A01 T01370071  RH  064%=      5-min Rain = 0
KMC4 110012Z 11006KT 14/07 A3006 RMK A01 T01370070  RH  064%=      5-min Rain = 0
KMC4 110013Z 12006KT 14/07 A3006 RMK A01 T01370070  RH  064%=      5-min Rain = 0
KMC4 110014Z 12008KT 14/07 A3006 RMK A01 T01370071  RH  065%=      5-min Rain = 0
KMC4 110015Z 11009KT 14/07 A3006 RMK A01 T01370071  RH  064%=      5-min Rain = 0
KMC4 110016Z 12008KT 14/07 A3006 RMK A01 T01360071  RH  065%=      5-min Rain = 0
KMC4 110017Z 11009KT 14/07 A3006 RMK A01 T01360071  RH  065%=      5-min Rain = 0
KMC4 110018Z 10008KT 14/07 A3006 RMK A01 T01360071  RH  064%=      5-min Rain = 0
KMC4 110019Z 11008KT 14/07 A3006 RMK A01 T01360071  RH  065%=      5-min Rain = 0
KMC4 110020Z 12008KT 14/07 A3006 RMK A01 T01360071  RH  065%=      5-min Rain = 0
KMC4 110021Z 11008KT 14/07 A3005 RMK A01 T01360070  RH  065%=      5-min Rain = 0
KMC4 110022Z 12008KT 14/07 A3005 RMK A01 T01360070  RH  065%=      5-min Rain = 0
KMC4 110023Z 12008KT 14/07 A3005 RMK A01 T01360071  RH  065%=      5-min Rain = 0
KMC4 110024Z 12008KT 14/07 A3005 RMK A01 T01360070  RH  065%=      5-min Rain = 0
KMC4 110025Z 12009KT 14/07 A3005 RMK A01 T01360071  RH  065%=      5-min Rain = 0
KMC4 110026Z 13009KT 14/07 A3006 RMK A01 T01350071  RH  065%=      5-min Rain = 0
KMC4 110027Z 13009KT 14/07 A3006 RMK A01 T01350071  RH  065%=      5-min Rain = 0
KMC4 110028Z 13011KT 14/07 A3006 RMK A01 T01350070  RH  065%=      5-min Rain = 0
KMC4 110029Z 14010KT 14/07 A3006 RMK A01 T01350070  RH  065%=      5-min Rain = 0
KMC4 110030Z 13008KT 13/07 A3006 RMK A01 T01340071  RH  065%=      5-min Rain = 0
KMC4 110031Z 13009KT 13/07 A3006 RMK A01 T01340071  RH  065%=      5-min Rain = 0
KMC4 110032Z 13011KT 13/07 A3006 RMK A01 T01340071  RH  065%=      5-min Rain = 0
KMC4 110033Z 13010KT 13/07 A3006 RMK A01 T01340070  RH  065%=      5-min Rain = 0
KMC4 110034Z 13010KT 13/07 A3006 RMK A01 T01340071  RH  065%=      5-min Rain = 0
KMC4 110035Z 13010KT 13/07 A3006 RMK A01 T01340070  RH  065%=      5-min Rain = 0
KMC4 110036Z 13009KT 13/07 A3006 RMK A01 T01340069  RH  065%=      5-min Rain = 0
KMC4 110037Z 13010KT 13/07 A3006 RMK A01 T01340070  RH  065%=      5-min Rain = 0
KMC4 110038Z 13007KT 13/07 A3006 RMK A01 T01340070  RH  065%=      5-min Rain = 0
KMC4 110039Z 13008KT 13/07 A3006 RMK A01 T01340071  RH  066%=      5-min Rain = 0
KMC4 110040Z 12009KT 13/07 A3006 RMK A01 T01340070  RH  065%=      5-min Rain = 0
KMC4 110041Z 12008KT 13/07 A3006 RMK A01 T01340070  RH  065%=      5-min Rain = 0
KMC4 110042Z 13008KT 13/07 A3006 RMK A01 T01340070  RH  065%=      5-min Rain = 0
KMC4 110043Z 13007KT 13/07 A3006 RMK A01 T01340071  RH  066%=      5-min Rain = 0
KMC4 110044Z 13007KT 13/07 A3006 RMK A01 T01330071  RH  066%=      5-min Rain = 0
KMC4 110045Z 13009KT 13/07 A3006 RMK A01 T01330070  RH  066%=      5-min Rain = 0
KMC4 110046Z 13009KT 13/07 A3006 RMK A01 T01330070  RH  066%=      5-min Rain = 0
KMC4 110047Z 13009KT 13/07 A3005 RMK A01 T01330069  RH  065%=      5-min Rain = 0
KMC4 110048Z 13010KT 13/07 A3005 RMK A01 T01330069  RH  065%=      5-min Rain = 0
KMC4 110049Z 13010KT 13/07 A3005 RMK A01 T01330069  RH  065%=      5-min Rain = 0
KMC4 110050Z 13010KT 13/07 A3005 RMK A01 T01330070  RH  066%=      5-min Rain = 0
KMC4 110051Z 13008KT 13/07 A3005 RMK A01 T01330070  RH  066%=      5-min Rain = 0
KMC4 110052Z 13010KT 13/07 A3005 RMK A01 T01330071  RH  066%=      5-min Rain = 0
KMC4 110053Z 13010KT 13/07 A3006 RMK A01 T01330070  RH  066%=      5-min Rain = 0
KMC4 110054Z 13009KT 13/07 A3006 RMK A01 T01330070  RH  066%=      5-min Rain = 0
KMC4 110055Z 13010KT 13/07 A3006 RMK A01 T01320070  RH  066%=      5-min Rain = 0
KMC4 110056Z 13010KT 13/07 A3005 RMK A01 T01320070  RH  066%=      5-min Rain = 0
KMC4 110057Z 13010KT 13/07 A3005 RMK A01 T01330070  RH  066%=      5-min Rain = 0
KMC4 110058Z 13009KT 13/07 A3005 RMK A01 T01320069  RH  066%=      5-min Rain = 0
KMC4 110059Z 13010KT 13/07 A3006 RMK A01 T01320070  RH  066%=      5-min Rain = 0
KMC4 110100Z 13010KT 13/07 A3006 RMK A01 T01330070  RH  066%=      5-min Rain = 0
KMC4 110101Z 13010KT 13/07 A3005 RMK A01 T01320069  RH  066%=      5-min Rain = 0
KMC4 110102Z 13009KT 13/07 A3005 RMK A01 T01320069  RH  066%=      5-min Rain = 0
KMC4 110103Z 13010KT 13/07 A3005 RMK A01 T01320070  RH  066%=      5-min Rain = 0
KMC4 110104Z 13011KT 13/07 A3005 RMK A01 T01320069  RH  066%=      5-min Rain = 0
KMC4 110105Z 13011KT 13/07 A3005 RMK A01 T01320069  RH  065%=      5-min Rain = 0
KMC4 110106Z 13011KT 13/07 A3005 RMK A01 T01330069  RH  065%=      5-min Rain = 0
KMC4 110107Z 13012KT 13/07 A3005 RMK A01 T01320069  RH  065%=      5-min Rain = 0
KMC4 110108Z 12011KT 13/07 A3005 RMK A01 T01330069  RH  065%=      5-min Rain = 0
KMC4 110109Z 13010KT 13/07 A3005 RMK A01 T01330069  RH  065%=      5-min Rain = 0
KMC4 110110Z 13012KT 13/07 A3005 RMK A01 T01330069  RH  065%=      5-min Rain = 0
KMC4 110111Z 13012KT 13/07 A3005 RMK A01 T01330069  RH  065%=      5-min Rain = 0
KMC4 110112Z 13012KT 13/07 A3005 RMK A01 T01330069  RH  065%=      5-min Rain = 0
KMC4 110113Z 13011KT 13/07 A3005 RMK A01 T01330069  RH  065%=      5-min Rain = 0
KMC4 110114Z 13010KT 13/07 A3005 RMK A01 T01330069  RH  065%=      5-min Rain = 0
KMC4 110115Z 14009KT 13/07 A3005 RMK A01 T01330069  RH  065%=      5-min Rain = 0
KMC4 110116Z 13012KT 13/07 A3005 RMK A01 T01320069  RH  066%=      5-min Rain = 0
KMC4 110117Z 13013KT 13/07 A3005 RMK A01 T01320068  RH  065%=      5-min Rain = 0
KMC4 110118Z 13012KT 13/07 A3005 RMK A01 T01330069  RH  065%=      5-min Rain = 0
KMC4 110119Z 14010KT 13/07 A3005 RMK A01 T01330069  RH  065%=      5-min Rain = 0
KMC4 110120Z 14009KT 13/07 A3006 RMK A01 T01320070  RH  066%=      5-min Rain = 0
KMC4 110121Z 14012KT 13/07 A3006 RMK A01 T01320069  RH  066%=      5-min Rain = 0
KMC4 110122Z 13010KT 13/07 A3006 RMK A01 T01320069  RH  066%=      5-min Rain = 0
KMC4 110123Z 13009KT 13/07 A3006 RMK A01 T01320069  RH  066%=      5-min Rain = 0
KMC4 110124Z 13009KT 13/07 A3006 RMK A01 T01310069  RH  066%=      5-min Rain = 0
KMC4 110125Z 13012KT 13/07 A3006 RMK A01 T01310069  RH  066%=      5-min Rain = 0
KMC4 110126Z 13011KT 13/07 A3006 RMK A01 T01320069  RH  066%=      5-min Rain = 0
KMC4 110127Z 14011KT 13/07 A3006 RMK A01 T01310069  RH  066%=      5-min Rain = 0
KMC4 110128Z 13011KT 13/07 A3006 RMK A01 T01320069  RH  066%=      5-min Rain = 0
KMC4 110129Z 13010KT 13/07 A3006 RMK A01 T01310070  RH  066%=      5-min Rain = 0
KMC4 110130Z 14012KT 13/07 A3006 RMK A01 T01310069  RH  066%=      5-min Rain = 0
KMC4 110131Z 13011KT 13/07 A3006 RMK A01 T01310069  RH  066%=      5-min Rain = 0
KMC4 110132Z 14011KT 13/07 A3006 RMK A01 T01310069  RH  066%=      5-min Rain = 0
KMC4 110133Z 13010KT 13/07 A3006 RMK A01 T01310069  RH  066%=      5-min Rain = 0
KMC4 110134Z 13009KT 13/07 A3006 RMK A01 T01310069  RH  066%=      5-min Rain = 0
KMC4 110135Z 14012KT 13/07 A3005 RMK A01 T01310069  RH  066%=      5-min Rain = 0
KMC4 110136Z 13011KT 13/07 A3005 RMK A01 T01310069  RH  066%=      5-min Rain = 0
KMC4 110137Z 13012KT 13/07 A3005 RMK A01 T01310069  RH  066%=      5-min Rain = 0
KMC4 110138Z 14012KT 13/07 A3005 RMK A01 T01310069  RH  066%=      5-min Rain = 0
KMC4 110139Z 13010KT 13/07 A3006 RMK A01 T01310069  RH  066%=      5-min Rain = 0
KMC4 110140Z 13011KT 13/07 A3006 RMK A01 T01310069  RH  066%=      5-min Rain = 0
KMC4 110141Z 13011KT 13/07 A3006 RMK A01 T01310069  RH  066%=      5-min Rain = 0
KMC4 110142Z 13010KT 13/07 A3006 RMK A01 T01310069  RH  066%=      5-min Rain = 0
KMC4 110143Z 13011KT 13/07 A3006 RMK A01 T01310069  RH  066%=      5-min Rain = 0
KMC4 110144Z 14013KT 13/07 A3006 RMK A01 T01310069  RH  066%=      5-min Rain = 0
KMC4 110145Z 13012KT 13/07 A3006 RMK A01 T01310069  RH  066%=      5-min Rain = 0
KMC4 110146Z 13014KT 13/07 A3006 RMK A01 T01310069  RH  066%=      5-min Rain = 0
KMC4 110147Z 14014KT 13/07 A3006 RMK A01 T01310069  RH  066%=      5-min Rain = 0
KMC4 110148Z 14011KT 13/07 A3006 RMK A01 T01320070  RH  066%=      5-min Rain = 0
KMC4 110149Z 14011KT 13/07 A3006 RMK A01 T01310070  RH  066%=      5-min Rain = 0
KMC4 110150Z 14013KT 13/07 A3006 RMK A01 T01310070  RH  066%=      5-min Rain = 0
KMC4 110151Z 13013KT 13/07 A3006 RMK A01 T01310070  RH  066%=      5-min Rain = 0
KMC4 110152Z 14013KT 13/07 A3006 RMK A01 T01310070  RH  066%=      5-min Rain = 0
KMC4 110153Z 14011KT 13/07 A3006 RMK A01 T01310070  RH  066%=      5-min Rain = 0
KMC4 110154Z 14012KT 13/07 A3006 RMK A01 T01310070  RH  066%=      5-min Rain = 0
KMC4 110155Z 14016KT 13/07 A3006 RMK A01 T01310069  RH  066%=      5-min Rain = 0
KMC4 110156Z 14014KT 13/07 A3006 RMK A01 T01310069  RH  066%=      5-min Rain = 0
KMC4 110157Z 14011KT 13/07 A3006 RMK A01 T01310069  RH  066%=      5-min Rain = 0
KMC4 110158Z 14012KT 13/07 A3006 RMK A01 T01310070  RH  066%=      5-min Rain = 0
KMC4 110159Z 14011KT 13/07 A3006 RMK A01 T01310070  RH  066%=      5-min Rain = 0
KMC4 110200Z 14013KT 13/07 A3006 RMK A01 T01310070  RH  067%=      5-min Rain = 0
KMC4 110201Z 14014KT 13/07 A3006 RMK A01 T01310070  RH  067%=      5-min Rain = 0
KMC4 110202Z 14013KT 13/07 A3006 RMK A01 T01310070  RH  066%=      5-min Rain = 0
KMC4 110203Z 14012KT 13/07 A3006 RMK A01 T01300069  RH  066%=      5-min Rain = 0
KMC4 110204Z 14011KT 13/07 A3006 RMK A01 T01310070  RH  067%=      5-min Rain = 0
KMC4 110205Z 15011KT 13/07 A3006 RMK A01 T01310070  RH  067%=      5-min Rain = 0
KMC4 110206Z 14012KT 13/07 A3006 RMK A01 T01300070  RH  067%=      5-min Rain = 0
KMC4 110207Z 14009KT 13/07 A3006 RMK A01 T01300070  RH  067%=      5-min Rain = 0
KMC4 110208Z 14008KT 13/07 A3006 RMK A01 T01300070  RH  067%=      5-min Rain = 0
KMC4 110209Z 14009KT 13/07 A3006 RMK A01 T01300070  RH  067%=      5-min Rain = 0
KMC4 110210Z 13010KT 13/07 A3006 RMK A01 T01290070  RH  067%=      5-min Rain = 0
KMC4 110211Z 14008KT 13/07 A3006 RMK A01 T01290070  RH  067%=      5-min Rain = 0
KMC4 110212Z 14010KT 13/07 A3006 RMK A01 T01290070  RH  067%=      5-min Rain = 0
KMC4 110213Z 14009KT 13/07 A3006 RMK A01 T01290070  RH  067%=      5-min Rain = 0
KMC4 110214Z 14009KT 13/07 A3006 RMK A01 T01290070  RH  067%=      5-min Rain = 0
KMC4 110215Z 14010KT 13/07 A3006 RMK A01 T01290070  RH  067%=      5-min Rain = 0
KMC4 110216Z 14009KT 13/07 A3006 RMK A01 T01290070  RH  067%=      5-min Rain = 0
KMC4 110217Z 15011KT 13/07 A3006 RMK A01 T01290070  RH  067%=      5-min Rain = 0
KMC4 110218Z 14011KT 13/07 A3006 RMK A01 T01290070  RH  067%=      5-min Rain = 0
KMC4 110219Z 14010KT 13/07 A3006 RMK A01 T01290070  RH  067%=      5-min Rain = 0
KMC4 110220Z 14011KT 13/07 A3006 RMK A01 T01290070  RH  067%=      5-min Rain = 0
KMC4 110221Z 14009KT 13/07 A3006 RMK A01 T01290070  RH  067%=      5-min Rain = 0
KMC4 110222Z 14010KT 13/07 A3006 RMK A01 T01290071  RH  068%=      5-min Rain = 0
KMC4 110223Z 15009KT 13/07 A3006 RMK A01 T01290071  RH  068%=      5-min Rain = 0
KMC4 110224Z 14010KT 13/07 A3006 RMK A01 T01280071  RH  068%=      5-min Rain = 0
KMC4 110225Z 14010KT 13/07 A3006 RMK A01 T01280071  RH  068%=      5-min Rain = 0
KMC4 110226Z 14009KT 13/07 A3006 RMK A01 T01280071  RH  068%=      5-min Rain = 0
KMC4 110227Z 14009KT 13/07 A3006 RMK A01 T01280071  RH  068%=      5-min Rain = 0
KMC4 110228Z 14009KT 13/07 A3006 RMK A01 T01280071  RH  069%=      5-min Rain = 0
KMC4 110229Z 14010KT 13/07 A3006 RMK A01 T01270071  RH  069%=      5-min Rain = 0
KMC4 110230Z 14011KT 13/07 A3006 RMK A01 T01270071  RH  068%=      5-min Rain = 0
KMC4 110231Z 14010KT 13/07 A3006 RMK A01 T01280071  RH  068%=      5-min Rain = 0
KMC4 110232Z 14012KT 13/07 A3006 RMK A01 T01280071  RH  068%=      5-min Rain = 0
KMC4 110233Z 14012KT 13/07 A3006 RMK A01 T01280071  RH  068%=      5-min Rain = 0
KMC4 110234Z 14011KT 13/07 A3006 RMK A01 T01280071  RH  068%=      5-min Rain = 0
KMC4 110235Z 14011KT 13/07 A3006 RMK A01 T01280071  RH  068%=      5-min Rain = 0
KMC4 110236Z 14011KT 13/07 A3006 RMK A01 T01280071  RH  068%=      5-min Rain = 0
KMC4 110237Z 15009KT 13/07 A3006 RMK A01 T01280072  RH  068%=      5-min Rain = 0
KMC4 110238Z 14011KT 13/07 A3006 RMK A01 T01280072  RH  069%=      5-min Rain = 0
KMC4 110239Z 14011KT 13/07 A3006 RMK A01 T01270072  RH  069%=      5-min Rain = 0
KMC4 110240Z 14011KT 13/07 A3006 RMK A01 T01270072  RH  069%=      5-min Rain = 0
KMC4 110241Z 14009KT 13/07 A3006 RMK A01 T01270072  RH  069%=      5-min Rain = 0
KMC4 110242Z 14011KT 13/07 A3006 RMK A01 T01270072  RH  069%=      5-min Rain = 0
KMC4 110243Z 14012KT 13/07 A3006 RMK A01 T01270072  RH  069%=      5-min Rain = 0
KMC4 110244Z 13009KT 13/07 A3007 RMK A01 T01270072  RH  069%=      5-min Rain = 0
KMC4 110245Z 14008KT 13/07 A3007 RMK A01 T01270073  RH  070%=      5-min Rain = 0
KMC4 110246Z 14009KT 13/07 A3006 RMK A01 T01260073  RH  070%=      5-min Rain = 0
KMC4 110247Z 14012KT 13/07 A3006 RMK A01 T01260072  RH  070%=      5-min Rain = 0
KMC4 110248Z 13010KT 13/07 A3006 RMK A01 T01260073  RH  070%=      5-min Rain = 0
KMC4 110249Z 13011KT 13/07 A3006 RMK A01 T01270072  RH  070%=      5-min Rain = 0
KMC4 110250Z 14014KT 13/07 A3006 RMK A01 T01270073  RH  070%=      5-min Rain = 0
KMC4 110251Z 13011KT 13/07 A3006 RMK A01 T01270073  RH  069%=      5-min Rain = 0
KMC4 110252Z 13010KT 13/07 A3006 RMK A01 T01270073  RH  069%=      5-min Rain = 0
KMC4 110253Z 13009KT 13/07 A3006 RMK A01 T01270073  RH  069%=      5-min Rain = 0
KMC4 110254Z 13010KT 13/07 A3006 RMK A01 T01270073  RH  069%=      5-min Rain = 0
KMC4 110255Z 13010KT 13/07 A3006 RMK A01 T01270073  RH  070%=      5-min Rain = 0
KMC4 110256Z 12009KT 13/07 A3006 RMK A01 T01270073  RH  070%=      5-min Rain = 0
KMC4 110257Z 12008KT 13/07 A3006 RMK A01 T01270073  RH  070%=      5-min Rain = 0
KMC4 110258Z 13007KT 13/07 A3006 RMK A01 T01270073  RH  070%=      5-min Rain = 0
KMC4 110259Z 12008KT 13/07 A3006 RMK A01 T01270073  RH  070%=      5-min Rain = 0
KMC4 110300Z 12009KT 13/07 A3006 RMK A01 T01270074  RH  070%=      5-min Rain = 0
KMC4 110301Z 13009KT 13/07 A3006 RMK A01 T01270074  RH  070%=      5-min Rain = 0
KMC4 110302Z 13008KT 13/07 A3006 RMK A01 T01270074  RH  070%=      5-min Rain = 0
KMC4 110303Z 14011KT 13/07 A3006 RMK A01 T01260074  RH  070%=      5-min Rain = 0
KMC4 110304Z 12009KT 13/07 A3006 RMK A01 T01260074  RH  071%=      5-min Rain = 0
KMC4 110305Z 13008KT 13/07 A3006 RMK A01 T01260074  RH  071%=      5-min Rain = 0
KMC4 110306Z 13007KT 13/07 A3006 RMK A01 T01260074  RH  071%=      5-min Rain = 0
KMC4 110307Z 13008KT 13/07 A3006 RMK A01 T01260074  RH  071%=      5-min Rain = 0
KMC4 110308Z 13009KT 13/07 A3006 RMK A01 T01250074  RH  071%=      5-min Rain = 0
KMC4 110309Z 14009KT 13/07 A3006 RMK A01 T01250074  RH  071%=      5-min Rain = 0
KMC4 110310Z 14009KT 13/07 A3006 RMK A01 T01250074  RH  071%=      5-min Rain = 0
KMC4 110311Z 14010KT 13/07 A3006 RMK A01 T01260074  RH  071%=      5-min Rain = 0
KMC4 110312Z 14011KT 13/07 A3006 RMK A01 T01260074  RH  071%=      5-min Rain = 0
KMC4 110313Z 14010KT 13/07 A3006 RMK A01 T01260074  RH  071%=      5-min Rain = 0
KMC4 110314Z 14013KT 13/07 A3006 RMK A01 T01260074  RH  071%=      5-min Rain = 0
KMC4 110315Z 14012KT 13/07 A3006 RMK A01 T01260074  RH  071%=      5-min Rain = 0
KMC4 110316Z 14011KT 13/07 A3006 RMK A01 T01270074  RH  071%=      5-min Rain = 0
KMC4 110317Z 14010KT 13/08 A3006 RMK A01 T01260075  RH  071%=      5-min Rain = 0
KMC4 110318Z 14011KT 13/08 A3006 RMK A01 T01260075  RH  071%=      5-min Rain = 0
KMC4 110319Z 14012KT 13/08 A3006 RMK A01 T01260075  RH  071%=      5-min Rain = 0
KMC4 110320Z 14013KT 13/08 A3006 RMK A01 T01260075  RH  071%=      5-min Rain = 0
KMC4 110321Z 14010KT 13/08 A3006 RMK A01 T01260075  RH  071%=      5-min Rain = 0
KMC4 110322Z 14012KT 13/08 A3006 RMK A01 T01260075  RH  071%=      5-min Rain = 0
KMC4 110323Z 14011KT 13/08 A3006 RMK A01 T01260075  RH  071%=      5-min Rain = 0
KMC4 110324Z 14011KT 13/08 A3006 RMK A01 T01260075  RH  071%=      5-min Rain = 0
KMC4 110325Z 14012KT 13/08 A3006 RMK A01 T01260075  RH  071%=      5-min Rain = 0
KMC4 110326Z 14014KT 13/08 A3006 RMK A01 T01260075  RH  071%=      5-min Rain = 0
KMC4 110327Z 14012KT 13/08 A3006 RMK A01 T01270075  RH  071%=      5-min Rain = 0
KMC4 110328Z 14010KT 13/08 A3007 RMK A01 T01270075  RH  071%=      5-min Rain = 0
KMC4 110329Z 13009KT 13/08 A3007 RMK A01 T01270076  RH  071%=      5-min Rain = 0
KMC4 110330Z 14009KT 13/08 A3007 RMK A01 T01260076  RH  071%=      5-min Rain = 0
KMC4 110331Z 14009KT 13/08 A3007 RMK A01 T01260076  RH  072%=      5-min Rain = 0
KMC4 110332Z 14010KT 13/08 A3006 RMK A01 T01260076  RH  072%=      5-min Rain = 0
KMC4 110333Z 14010KT 13/08 A3006 RMK A01 T01260076  RH  071%=      5-min Rain = 0
KMC4 110334Z 14012KT 13/08 A3006 RMK A01 T01260076  RH  071%=      5-min Rain = 0
KMC4 110335Z 14013KT 13/08 A3006 RMK A01 T01260076  RH  071%=      5-min Rain = 0
KMC4 110336Z 14012KT 13/08 A3006 RMK A01 T01260076  RH  071%=      5-min Rain = 0
KMC4 110337Z 13009KT 13/08 A3006 RMK A01 T01260075  RH  071%=      5-min Rain = 0
KMC4 110338Z 14010KT 13/08 A3006 RMK A01 T01260076  RH  072%=      5-min Rain = 0
KMC4 110339Z 14009KT 13/08 A3006 RMK A01 T01260076  RH  072%=      5-min Rain = 0
KMC4 110340Z 14011KT 13/08 A3006 RMK A01 T01250076  RH  072%=      5-min Rain = 0
KMC4 110341Z 14010KT 13/08 A3006 RMK A01 T01250076  RH  072%=      5-min Rain = 0
KMC4 110342Z 14009KT 13/08 A3006 RMK A01 T01260076  RH  072%=      5-min Rain = 0
KMC4 110343Z 14011KT 13/08 A3006 RMK A01 T01250076  RH  072%=      5-min Rain = 0
KMC4 110344Z 14010KT 13/08 A3006 RMK A01 T01250076  RH  072%=      5-min Rain = 0
KMC4 110345Z 14010KT 13/08 A3006 RMK A01 T01250076  RH  072%=      5-min Rain = 0
KMC4 110346Z 14011KT 13/08 A3006 RMK A01 T01250076  RH  072%=      5-min Rain = 0
KMC4 110347Z 13009KT 13/08 A3006 RMK A01 T01260076  RH  072%=      5-min Rain = 0
KMC4 110348Z 13009KT 13/08 A3006 RMK A01 T01250076  RH  072%=      5-min Rain = 0
KMC4 110349Z 12007KT 13/08 A3006 RMK A01 T01250076  RH  072%=      5-min Rain = 0
KMC4 110350Z 13007KT 13/08 A3006 RMK A01 T01250077  RH  072%=      5-min Rain = 0
KMC4 110351Z 13008KT 13/08 A3006 RMK A01 T01250077  RH  073%=      5-min Rain = 0
KMC4 110352Z 14007KT 12/08 A3006 RMK A01 T01240076  RH  073%=      5-min Rain = 0
KMC4 110353Z 13009KT 12/08 A3006 RMK A01 T01240076  RH  073%=      5-min Rain = 0
KMC4 110354Z 13007KT 12/08 A3006 RMK A01 T01240076  RH  073%=      5-min Rain = 0
KMC4 110355Z 14008KT 12/08 A3006 RMK A01 T01240076  RH  073%=      5-min Rain = 0
KMC4 110356Z 13009KT 12/08 A3006 RMK A01 T01240077  RH  073%=      5-min Rain = 0
KMC4 110357Z 14009KT 12/08 A3007 RMK A01 T01240077  RH  073%=      5-min Rain = 0
KMC4 110358Z 13008KT 12/08 A3007 RMK A01 T01240077  RH  073%=      5-min Rain = 0
KMC4 110359Z 14009KT 12/08 A3007 RMK A01 T01240077  RH  073%=      5-min Rain = 0
KMC4 110400Z 13009KT 12/08 A3007 RMK A01 T01240077  RH  073%=      5-min Rain = 0
KMC4 110401Z 13008KT 12/08 A3007 RMK A01 T01240077  RH  073%=      5-min Rain = 0
KMC4 110402Z 14009KT 12/08 A3007 RMK A01 T01240077  RH  073%=      5-min Rain = 0
KMC4 110403Z 13008KT 12/08 A3007 RMK A01 T01240077  RH  073%=      5-min Rain = 0
KMC4 110404Z 14010KT 12/08 A3007 RMK A01 T01240077  RH  073%=      5-min Rain = 0
KMC4 110405Z 13010KT 12/08 A3007 RMK A01 T01240077  RH  073%=      5-min Rain = 0
KMC4 110406Z 13010KT 12/08 A3007 RMK A01 T01240077  RH  073%=      5-min Rain = 0
KMC4 110407Z 14010KT 12/08 A3007 RMK A01 T01240077  RH  073%=      5-min Rain = 0
KMC4 110408Z 14009KT 12/08 A3007 RMK A01 T01230077  RH  073%=      5-min Rain = 0
KMC4 110409Z 14008KT 12/08 A3007 RMK A01 T01240077  RH  073%=      5-min Rain = 0
KMC4 110410Z 13008KT 12/08 A3007 RMK A01 T01240078  RH  073%=      5-min Rain = 0
KMC4 110411Z 14008KT 12/08 A3007 RMK A01 T01240078  RH  073%=      5-min Rain = 0
KMC4 110412Z 14009KT 12/08 A3007 RMK A01 T01240078  RH  074%=      5-min Rain = 0
KMC4 110413Z 14008KT 12/08 A3007 RMK A01 T01240078  RH  074%=      5-min Rain = 0
KMC4 110414Z 14008KT 12/08 A3007 RMK A01 T01240078  RH  074%=      5-min Rain = 0
KMC4 110415Z 13008KT 12/08 A3007 RMK A01 T01230078  RH  074%=      5-min Rain = 0
KMC4 110416Z 13009KT 12/08 A3007 RMK A01 T01230078  RH  074%=      5-min Rain = 0
KMC4 110417Z 13009KT 12/08 A3007 RMK A01 T01230078  RH  074%=      5-min Rain = 0
KMC4 110418Z 13009KT 12/08 A3007 RMK A01 T01230078  RH  074%=      5-min Rain = 0
KMC4 110419Z 13009KT 12/08 A3006 RMK A01 T01230078  RH  074%=      5-min Rain = 0
KMC4 110420Z 13009KT 12/08 A3006 RMK A01 T01230078  RH  074%=      5-min Rain = 0
KMC4 110421Z 13008KT 12/08 A3006 RMK A01 T01230078  RH  074%=      5-min Rain = 0
KMC4 110422Z 12010KT 12/08 A3006 RMK A01 T01230078  RH  074%=      5-min Rain = 0
KMC4 110423Z 12007KT 12/08 A3006 RMK A01 T01230078  RH  074%=      5-min Rain = 0
KMC4 110424Z 12008KT 12/08 A3006 RMK A01 T01230079  RH  074%=      5-min Rain = 0
KMC4 110425Z 11008KT 12/08 A3006 RMK A01 T01230079  RH  074%=      5-min Rain = 0
KMC4 110426Z 10008KT 12/08 A3006 RMK A01 T01230079  RH  074%=      5-min Rain = 0
KMC4 110427Z 10007KT 12/08 A3006 RMK A01 T01230079  RH  074%=      5-min Rain = 0
KMC4 110428Z 10007KT 12/08 A3006 RMK A01 T01230079  RH  074%=      5-min Rain = 0
KMC4 110429Z 10007KT 12/08 A3006 RMK A01 T01230079  RH  074%=      5-min Rain = 0
KMC4 110430Z 11007KT 12/08 A3006 RMK A01 T01230079  RH  074%=      5-min Rain = 0
KMC4 110431Z 11007KT 12/08 A3006 RMK A01 T01230079  RH  074%=      5-min Rain = 0
KMC4 110432Z 10008KT 12/08 A3006 RMK A01 T01230079  RH  074%=      5-min Rain = 0
KMC4 110433Z 12009KT 12/08 A3006 RMK A01 T01230079  RH  075%=      5-min Rain = 0
KMC4 110434Z 11007KT 12/08 A3006 RMK A01 T01230079  RH  075%=      5-min Rain = 0
KMC4 110435Z 11008KT 12/08 A3006 RMK A01 T01230079  RH  075%=      5-min Rain = 0
KMC4 110436Z 11008KT 12/08 A3006 RMK A01 T01230079  RH  075%=      5-min Rain = 0
KMC4 110437Z 11007KT 12/08 A3006 RMK A01 T01230079  RH  075%=      5-min Rain = 0
KMC4 110438Z 11008KT 12/08 A3006 RMK A01 T01230079  RH  075%=      5-min Rain = 0
KMC4 110439Z 12008KT 12/08 A3006 RMK A01 T01230079  RH  075%=      5-min Rain = 0
KMC4 110440Z 13009KT 12/08 A3006 RMK A01 T01230080  RH  075%=      5-min Rain = 0
KMC4 110441Z 13007KT 12/08 A3006 RMK A01 T01230081  RH  075%=      5-min Rain = 0
KMC4 110442Z 12009KT 12/08 A3006 RMK A01 T01230080  RH  075%=      5-min Rain = 0
KMC4 110443Z 12008KT 12/08 A3006 RMK A01 T01230080  RH  075%=      5-min Rain = 0
KMC4 110444Z 12010KT 12/08 A3006 RMK A01 T01230080  RH  075%=      5-min Rain = 0
KMC4 110445Z 12008KT 12/08 A3006 RMK A01 T01230080  RH  075%=      5-min Rain = 0
KMC4 110446Z 13010KT 12/08 A3006 RMK A01 T01230081  RH  075%=      5-min Rain = 0
KMC4 110447Z 13011KT 12/08 A3006 RMK A01 T01230081  RH  075%=      5-min Rain = 0
KMC4 110448Z 13009KT 12/08 A3006 RMK A01 T01230081  RH  075%=      5-min Rain = 0
KMC4 110449Z 13011KT 12/08 A3006 RMK A01 T01230081  RH  076%=      5-min Rain = 0
KMC4 110450Z 13010KT 12/08 A3006 RMK A01 T01230081  RH  075%=      5-min Rain = 0
KMC4 110451Z 13011KT 12/08 A3006 RMK A01 T01230081  RH  076%=      5-min Rain = 0
KMC4 110452Z 13011KT 12/08 A3006 RMK A01 T01230081  RH  076%=      5-min Rain = 0
KMC4 110453Z 14011KT 12/08 A3006 RMK A01 T01230081  RH  076%=      5-min Rain = 0
KMC4 110454Z 14013KT 12/08 A3006 RMK A01 T01230081  RH  076%=      5-min Rain = 0
KMC4 110455Z 15012KT 12/08 A3006 RMK A01 T01230081  RH  076%=      5-min Rain = 0
KMC4 110456Z 14009KT 12/08 A3006 RMK A01 T01230082  RH  076%=      5-min Rain = 0
KMC4 110457Z 14010KT 12/08 A3006 RMK A01 T01230081  RH  076%=      5-min Rain = 0
KMC4 110458Z 15010KT 12/08 A3006 RMK A01 T01230082  RH  076%=      5-min Rain = 0
KMC4 110459Z 14011KT 12/08 A3005 RMK A01 T01230082  RH  076%=      5-min Rain = 0
KMC4 110500Z 15015KT 12/08 A3005 RMK A01 T01220082  RH  076%=      5-min Rain = 0
KMC4 110501Z 14012KT 12/08 A3005 RMK A01 T01230082  RH  076%=      5-min Rain = 0
KMC4 110502Z 15013KT 12/08 A3005 RMK A01 T01230082  RH  076%=      5-min Rain = 0
KMC4 110503Z 14012KT 12/08 A3005 RMK A01 T01230082  RH  076%=      5-min Rain = 0
KMC4 110504Z 14012KT 12/08 A3005 RMK A01 T01230083  RH  076%=      5-min Rain = 0
KMC4 110505Z 14014KT 12/08 A3005 RMK A01 T01230083  RH  077%=      5-min Rain = 0
KMC4 110506Z 14012KT 12/08 A3005 RMK A01 T01230083  RH  077%=      5-min Rain = 0
KMC4 110507Z 14010KT 12/08 A3005 RMK A01 T01220083  RH  077%=      5-min Rain = 0
KMC4 110508Z 14010KT 12/08 A3005 RMK A01 T01220083  RH  077%=      5-min Rain = 0
KMC4 110509Z 15008KT 12/08 A3005 RMK A01 T01210083  RH  077%=      5-min Rain = 0
KMC4 110510Z 15008KT 12/08 A3005 RMK A01 T01210083  RH  078%=      5-min Rain = 0
KMC4 110511Z 16008KT 12/08 A3006 RMK A01 T01210083  RH  078%=      5-min Rain = 0
KMC4 110512Z 15008KT 12/08 A3006 RMK A01 T01210084  RH  078%=      5-min Rain = 0
KMC4 110513Z 15009KT 12/08 A3006 RMK A01 T01210084  RH  078%=      5-min Rain = 0
KMC4 110514Z 15009KT 12/08 A3006 RMK A01 T01210084  RH  078%=      5-min Rain = 0
KMC4 110515Z 15009KT 12/08 A3006 RMK A01 T01210084  RH  078%=      5-min Rain = 0
KMC4 110516Z 14011KT 12/08 A3006 RMK A01 T01210084  RH  078%=      5-min Rain = 0
KMC4 110517Z 15010KT 12/08 A3006 RMK A01 T01210084  RH  078%=      5-min Rain = 0
KMC4 110518Z 14010KT 12/08 A3006 RMK A01 T01210084  RH  078%=      5-min Rain = 0
KMC4 110519Z 14011KT 12/08 A3006 RMK A01 T01210084  RH  078%=      5-min Rain = 0
KMC4 110520Z 15011KT 12/08 A3006 RMK A01 T01210084  RH  078%=      5-min Rain = 0
KMC4 110521Z 14011KT 12/08 A3006 RMK A01 T01210084  RH  078%=      5-min Rain = 0
KMC4 110522Z 15008KT 12/08 A3006 RMK A01 T01210084  RH  078%=      5-min Rain = 0
KMC4 110523Z 15009KT 12/09 A3006 RMK A01 T01210085  RH  078%=      5-min Rain = 0
KMC4 110524Z 15011KT 12/08 A3006 RMK A01 T01210084  RH  078%=      5-min Rain = 0
KMC4 110525Z 15009KT 12/08 A3006 RMK A01 T01210084  RH  078%=      5-min Rain = 0
KMC4 110526Z 15010KT 12/09 A3007 RMK A01 T01210085  RH  078%=      5-min Rain = 0
KMC4 110527Z 15011KT 12/09 A3007 RMK A01 T01210085  RH  078%=      5-min Rain = 0
KMC4 110528Z 16010KT 12/09 A3007 RMK A01 T01210085  RH  078%=      5-min Rain = 0
KMC4 110529Z 14011KT 12/08 A3007 RMK A01 T01210084  RH  078%=      5-min Rain = 0
KMC4 110530Z 15011KT 12/09 A3007 RMK A01 T01210085  RH  078%=      5-min Rain = 0
KMC4 110531Z 15011KT 12/09 A3006 RMK A01 T01210085  RH  078%=      5-min Rain = 0
KMC4 110532Z 15011KT 12/09 A3006 RMK A01 T01220085  RH  078%=      5-min Rain = 0
KMC4 110533Z 15010KT 12/09 A3006 RMK A01 T01210085  RH  078%=      5-min Rain = 0
KMC4 110534Z 15009KT 12/09 A3006 RMK A01 T01210085  RH  078%=      5-min Rain = 0
KMC4 110535Z 15012KT 12/09 A3006 RMK A01 T01210085  RH  079%=      5-min Rain = 0
KMC4 110536Z 15011KT 12/09 A3006 RMK A01 T01210085  RH  078%=      5-min Rain = 0
KMC4 110537Z 15010KT 12/09 A3007 RMK A01 T01210085  RH  079%=      5-min Rain = 0
KMC4 110538Z 16009KT 12/09 A3006 RMK A01 T01210085  RH  079%=      5-min Rain = 0
KMC4 110539Z 15010KT 12/09 A3006 RMK A01 T01210085  RH  079%=      5-min Rain = 0
KMC4 110540Z 15011KT 12/09 A3006 RMK A01 T01210086  RH  079%=      5-min Rain = 0
KMC4 110541Z 15011KT 12/09 A3006 RMK A01 T01210085  RH  079%=      5-min Rain = 0
KMC4 110542Z 15011KT 12/09 A3006 RMK A01 T01210085  RH  079%=      5-min Rain = 0
KMC4 110543Z 15009KT 12/09 A3006 RMK A01 T01210085  RH  079%=      5-min Rain = 0
KMC4 110544Z 15011KT 12/09 A3006 RMK A01 T01210086  RH  079%=      5-min Rain = 0
KMC4 110545Z 15010KT 12/09 A3006 RMK A01 T01210086  RH  079%=      5-min Rain = 0
KMC4 110546Z 15009KT 12/09 A3006 RMK A01 T01210086  RH  079%=      5-min Rain = 0
KMC4 110547Z 15010KT 12/09 A3006 RMK A01 T01210086  RH  079%=      5-min Rain = 0
KMC4 110548Z 15010KT 12/09 A3006 RMK A01 T01210086  RH  079%=      5-min Rain = 0
KMC4 110549Z 16010KT 12/09 A3006 RMK A01 T01210085  RH  079%=      5-min Rain = 0
KMC4 110550Z 16009KT 12/09 A3006 RMK A01 T01210085  RH  079%=      5-min Rain = 0
KMC4 110551Z 16009KT 12/09 A3006 RMK A01 T01210086  RH  079%=      5-min Rain = 0
KMC4 110552Z 16009KT 12/09 A3006 RMK A01 T01210085  RH  079%=      5-min Rain = 0
KMC4 110553Z 16010KT 12/09 A3006 RMK A01 T01210085  RH  079%=      5-min Rain = 0
KMC4 110554Z 16009KT 12/09 A3006 RMK A01 T01210086  RH  079%=      5-min Rain = 0
KMC4 110555Z 15009KT 12/09 A3006 RMK A01 T01210086  RH  079%=      5-min Rain = 0
KMC4 110556Z 15009KT 12/09 A3006 RMK A01 T01210086  RH  079%=      5-min Rain = 0
KMC4 110557Z 15008KT 12/09 A3007 RMK A01 T01210086  RH  079%=      5-min Rain = 0
KMC4 110558Z 15008KT 12/09 A3007 RMK A01 T01210086  RH  079%=      5-min Rain = 0
KMC4 110559Z 14007KT 12/09 A3007 RMK A01 T01220086  RH  079%=      5-min Rain = 0
KMC4 110600Z 16008KT 12/09 A3007 RMK A01 T01220086  RH  079%=      5-min Rain = 0

Page generated in 0.0343 seconds.